Data for 12/22/2011

Time Sea-Level Adjusted Pressure Absolute Pressure Temperature Relative Humidity Dew Point Precipitation   
(mb) (inHg) (mb) (inHg) (C) (F) (%) (C) (F) (mm) (in)
00:01 1029 30.39 858 25.34 -10.1 13.9 85 -12.1 10.2 -93 -3.661
00:02 1029 30.39 858 25.34 -10.1 13.7 85 -12.2 10.1 -93 -3.661
00:03 1029 30.39 858 25.34 -10.3 13.5 85 -12.3 9.8 -93 -3.661
00:04 1029 30.39 858 25.34 -10.4 13.3 86 -12.3 9.9 -93 -3.661
00:05 1028 30.36 858 25.34 -10.5 13.1 86 -12.3 9.8 -93 -3.661
00:06 1028 30.36 858 25.34 -10.5 13 86 -12.4 9.6 -93 -3.661
00:07 1028 30.36 858 25.34 -10.7 12.8 86 -12.5 9.4 -93 -3.661
00:08 1028 30.36 858 25.34 -10.8 12.6 85 -12.8 8.9 -93 -3.661
00:09 1028 30.36 858 25.34 -11 12.1 84 -13.2 8.3 -93.1 -3.665
00:10 1028 30.36 858 25.34 -11.4 11.4 82 -13.9 7 -93.1 -3.665
00:11 1028 30.36 858 25.34 -11.9 10.5 81 -14.6 5.8 -93.1 -3.665
00:12 1028 30.36 858 25.34 -12.7 9.2 79 -15.6 3.9 -93.1 -3.665
00:13 1028 30.36 858 25.34 -13.3 8.1 81 -15.8 3.5 -93.1 -3.665
00:14 1028 30.36 858 25.34 -13.7 7.4 84 -15.8 3.6 -93.1 -3.665
00:15 1028 30.36 858 25.34 -14 6.8 85 -16 3.2 -93.1 -3.665
00:16 1028 30.36 858 25.34 -14.3 6.2 86 -16.2 2.8 -93.1 -3.665
00:17 1028 30.36 858 25.34 -14.6 5.8 86 -16.4 2.5 -93.1 -3.665
00:18 1028 30.36 858 25.34 -14.8 5.3 87 -16.6 2.2 -93.2 -3.669
00:19 1028 30.36 858 25.34 -15 5 89 -16.4 2.5 -93.2 -3.669
00:20 1028 30.36 858 25.34 -15 4.9 89 -16.5 2.3 -93.2 -3.669
00:21 1028 30.36 858 25.34 -15.2 4.6 88 -16.8 1.8 -93.2 -3.669
00:22 1028 30.36 858 25.34 -15.5 4.1 87 -17.2 1.1 -93.2 -3.669
00:23 1028 30.36 858 25.34 -15.7 3.7 87 -17.4 0.7 -93.3 -3.673
00:24 1028 30.36 858 25.34 -16 3.3 87 -17.6 0.3 -93.3 -3.673
00:25 1028 30.36 858 25.34 -16.1 2.9 88 -17.7 0.1 -93.3 -3.673
00:26 1028 30.36 858 25.34 -16.3 2.7 88 -17.8 -0.1 -93.3 -3.673
00:27 1028 30.36 858 25.34 -16.4 2.4 88 -17.9 -0.3 -93.3 -3.673
00:28 1028 30.36 858 25.34 -16.5 2.2 89 -17.9 -0.3 -93.3 -3.673
00:29 1028 30.36 858 25.34 -16.4 2.6 92 -17.3 0.8 -93.3 -3.673
00:30 1028 30.36 858 25.34 -15.9 3.4 95 -16.5 2.2 -93.3 -3.673
00:31 1028 30.36 858 25.34 -15.3 4.5 96 -15.7 3.7 -93.4 -3.677
00:32 1028 30.36 858 25.34 -14.8 5.3 96 -15.3 4.5 -93.4 -3.677
00:33 1028 30.36 858 25.34 -14.6 5.8 96 -15.1 4.8 -93.4 -3.677
00:34 1028 30.36 858 25.34 -14.3 6.2 96 -14.8 5.3 -93.4 -3.677
00:35 1028 30.36 858 25.34 -13.8 7.1 97 -14.2 6.4 -93.4 -3.677
00:36 1028 30.36 858 25.34 -13.4 7.9 97 -13.8 7.2 -93.4 -3.677
00:37 1028 30.36 858 25.34 -13.1 8.5 96 -13.6 7.6 -93.4 -3.677
00:38 1028 30.36 858 25.34 -12.9 8.7 95 -13.5 7.7 -93.4 -3.677
00:39 1028 30.36 858 25.34 -12.9 8.9 93 -13.7 7.3 -93.4 -3.677
00:40 1028 30.36 858 25.34 -13 8.7 91 -14.1 6.6 -93.4 -3.677
00:41 1028 30.36 857 25.31 -13.1 8.5 91 -14.3 6.3 -93.4 -3.677
00:42 1028 30.36 858 25.34 -13.3 8.1 88 -14.9 5.2 -93.4 -3.677
00:43 1028 30.36 858 25.34 -13.8 7.1 84 -16 3.2 -93.4 -3.677
00:44 1028 30.36 858 25.34 -14.3 6.3 89 -15.6 3.8 -93.4 -3.677
00:45 1028 30.36 858 25.34 -14 6.8 93 -14.9 5.2 -93.5 -3.681
00:46 1028 30.36 858 25.34 -13.5 7.6 95 -14.2 6.5 -93.5 -3.681
00:47 1028 30.36 858 25.34 -13.3 8 94 -14.2 6.5 -93.5 -3.681
00:48 1028 30.36 858 25.34 -13.3 8 92 -14.3 6.2 -93.5 -3.681
00:49 1028 30.36 858 25.34 -13.4 7.8 90 -14.7 5.5 -93.5 -3.681
00:50 1028 30.36 858 25.34 -13.4 7.8 93 -14.3 6.2 -93.5 -3.681
00:51 1028 30.36 858 25.34 -12.8 9.1 96 -13.2 8.2 -93.5 -3.681
00:52 1028 30.36 858 25.34 -12.1 10.2 97 -12.5 9.4 -93.5 -3.681
00:53 1028 30.36 858 25.34 -11.6 11.1 96 -12.1 10.2 -93.5 -3.681
00:54 1028 30.36 858 25.34 -11.4 11.5 95 -12 10.3 -93.5 -3.681
00:55 1028 30.36 858 25.34 -11.5 11.4 90 -12.7 9.1 -93.5 -3.681
00:56 1028 30.36 858 25.34 -11.8 10.7 89 -13.3 8.1 -93.5 -3.681
00:57 1028 30.36 858 25.34 -11.8 10.7 92 -12.9 8.8 -93.5 -3.681
00:58 1028 30.36 858 25.34 -11.8 10.8 92 -12.8 8.9 -93.5 -3.681
00:59 1028 30.36 858 25.34 -12 10.5 87 -13.6 7.4 -93.5 -3.681
01:00 1028 30.36 858 25.34 -12.7 9.2 81 -15.2 4.6 -93.5 -3.681
01:01 1028 30.36 858 25.34 -13.9 7.1 78 -16.9 1.7 -93.6 -3.685
01:02 1028 30.36 858 25.34 -14.8 5.3 81 -17.5 0.5 -93.6 -3.685
01:03 1028 30.36 858 25.34 -15.4 4.4 87 -17.1 1.2 -93.6 -3.685
01:04 1028 30.36 858 25.34 -15.7 3.8 85 -17.6 0.4 -93.6 -3.685
01:05 1028 30.36 858 25.34 -16 3.3 86 -17.8 -0 -93.6 -3.685
01:06 1028 30.36 858 25.34 -16.2 2.8 86 -18.1 -0.5 -93.6 -3.685
01:07 1028 30.36 858 25.34 -16.5 2.4 87 -18.1 -0.6 -93.6 -3.685
01:08 1028 30.36 858 25.34 -16.6 2.1 87 -18.2 -0.8 -93.6 -3.685
01:09 1028 30.36 858 25.34 -16.8 1.9 88 -18.3 -1 -93.6 -3.685
01:10 1028 30.36 858 25.34 -16.8 1.7 88 -18.4 -1.1 -93.7 -3.689
01:11 1028 30.36 858 25.34 -17 1.5 88 -18.5 -1.3 -93.7 -3.689
01:12 1028 30.36 858 25.34 -17 1.4 88 -18.6 -1.5 -93.7 -3.689
01:13 1028 30.36 858 25.34 -17.2 1.1 88 -18.8 -1.8 -93.7 -3.689
01:14 1028 30.36 858 25.34 -17.3 0.8 87 -19 -2.2 -93.7 -3.689
01:15 1028 30.36 858 25.34 -17.4 0.8 89 -18.8 -1.9 -93.7 -3.689
01:16 1028 30.36 858 25.34 -17.5 0.4 85 -19.5 -3 -93.7 -3.689
01:17 1028 30.36 858 25.34 -18 -0.3 85 -19.9 -3.8 -93.7 -3.689
01:18 1028 30.36 858 25.34 -18.1 -0.6 88 -19.7 -3.4 -93.7 -3.689
01:19 1028 30.36 858 25.34 -17.7 0.2 92 -18.7 -1.6 -93.7 -3.689
01:20 1029 30.39 858 25.34 -17.1 1.2 94 -17.8 -0.1 -93.8 -3.693
01:21 1028 30.36 858 25.34 -16.6 2.1 95 -17.3 0.9 -93.8 -3.693
01:22 1028 30.36 858 25.34 -16.4 2.6 94 -17.2 1.1 -93.8 -3.693
01:23 1028 30.36 858 25.34 -16.2 2.8 92 -17.3 0.9 -93.8 -3.693
01:24 1028 30.36 858 25.34 -16.6 2.2 88 -18 -0.5 -93.8 -3.693
01:25 1028 30.36 858 25.34 -16.9 1.5 86 -18.8 -1.8 -93.8 -3.693
01:26 1028 30.36 858 25.34 -17.3 0.9 86 -19.1 -2.4 -93.8 -3.693
01:27 1028 30.36 858 25.34 -17.4 0.6 88 -19 -2.2 -93.8 -3.693
01:28 1028 30.36 858 25.34 -17.3 0.8 90 -18.6 -1.4 -93.8 -3.693
01:29 1028 30.36 858 25.34 -16.9 1.5 92 -17.9 -0.2 -93.8 -3.693
01:30 1028 30.36 858 25.34 -16.8 1.8 92 -17.7 0.1 -93.8 -3.693
01:31 1028 30.36 858 25.34 -16.5 2.3 93 -17.3 0.8 -93.8 -3.693
01:32 1028 30.36 858 25.34 -16.2 2.8 93 -17.1 1.3 -93.8 -3.693
01:33 1028 30.36 858 25.34 -15.9 3.4 94 -16.6 2.1 -93.8 -3.693
01:34 1028 30.36 858 25.34 -15.7 3.8 93 -16.5 2.3 -93.8 -3.693
01:35 1028 30.36 858 25.34 -15.6 3.9 92 -16.6 2.1 -93.8 -3.693
01:36 1028 30.36 858 25.34 -15.5 4 93 -16.4 2.4 -93.8 -3.693
01:37 1028 30.36 858 25.34 -15.2 4.7 94 -15.9 3.3 -93.8 -3.693
01:38 1028 30.36 858 25.34 -15 5.1 93 -15.8 3.6 -93.8 -3.693
01:39 1028 30.36 858 25.34 -14.9 5.2 92 -15.9 3.4 -93.8 -3.693
01:40 1028 30.36 858 25.34 -15.2 4.7 88 -16.8 1.8 -93.8 -3.693
01:41 1028 30.36 858 25.34 -15.6 3.9 86 -17.5 0.6 -93.8 -3.693
01:42 1028 30.36 858 25.34 -15.9 3.4 88 -17.4 0.7 -93.8 -3.693
01:43 1028 30.36 858 25.34 -15.7 3.8 93 -16.6 2.1 -93.8 -3.693
01:44 1028 30.36 858 25.34 -15.5 4.1 89 -16.9 1.5 -93.8 -3.693
01:45 1028 30.36 858 25.34 -16.2 2.9 85 -18.2 -0.8 -93.8 -3.693
01:46 1028 30.36 858 25.34 -16.5 2.3 86 -18.3 -0.9 -93.8 -3.693
01:47 1028 30.36 858 25.34 -16.7 1.9 87 -18.4 -1.1 -93.8 -3.693
01:48 1028 30.36 858 25.34 -16.8 1.8 88 -18.3 -0.9 -93.8 -3.693
01:49 1028 30.36 858 25.34 -16.7 2 90 -18 -0.4 -93.8 -3.693
01:50 1028 30.36 858 25.34 -16.7 2 88 -18.2 -0.7 -93.8 -3.693
01:51 1028 30.36 858 25.34 -16.9 1.7 86 -18.6 -1.5 -93.8 -3.693
01:52 1028 30.36 858 25.34 -17.1 1.2 87 -18.9 -1.9 -93.8 -3.693
01:53 1028 30.36 858 25.34 -17.2 1.1 88 -18.7 -1.7 -93.8 -3.693
01:54 1028 30.36 858 25.34 -17 1.4 91 -18.1 -0.7 -93.8 -3.693
01:55 1028 30.36 858 25.34 -16.7 2 92 -17.7 0.1 -93.8 -3.693
01:56 1028 30.36 858 25.34 -16.5 2.3 91 -17.6 0.3 -93.8 -3.693
01:57 1028 30.36 858 25.34 -16.5 2.3 89 -17.9 -0.2 -93.8 -3.693
01:58 1028 30.36 858 25.34 -16.7 1.9 87 -18.3 -1 -93.8 -3.693
01:59 1028 30.36 858 25.34 -16.9 1.6 88 -18.5 -1.2 -93.8 -3.693
02:00 1028 30.36 858 25.34 -16.7 1.9 91 -17.8 -0 -93.9 -3.697
02:01 1028 30.36 858 25.34 -16.1 3 95 -16.8 1.8 -93.9 -3.697
02:02 1028 30.36 858 25.34 -15.3 4.5 97 -15.7 3.7 -93.9 -3.697
02:03 1028 30.36 858 25.34 -15.1 4.9 93 -16 3.2 -93.8 -3.693
02:04 1028 30.36 858 25.34 -15.6 4 88 -17.1 1.2 -93.8 -3.693
02:05 1028 30.36 858 25.34 -15.9 3.4 86 -17.7 0.1 -93.8 -3.693
02:06 1028 30.36 858 25.34 -16.3 2.7 86 -18.1 -0.6 -93.8 -3.693
02:07 1029 30.39 858 25.34 -16.4 2.5 88 -17.9 -0.2 -93.8 -3.693
02:08 1029 30.39 858 25.34 -16.3 2.7 91 -17.5 0.5 -93.8 -3.693
02:09 1029 30.39 858 25.34 -15.9 3.3 92 -16.9 1.5 -93.9 -3.697
02:10 1029 30.39 858 25.34 -15.9 3.4 89 -17.3 0.9 -93.9 -3.697
02:11 1029 30.39 858 25.34 -16.2 2.8 87 -17.9 -0.2 -93.9 -3.697
02:12 1029 30.39 858 25.34 -16.3 2.6 88 -17.9 -0.2 -93.9 -3.697
02:13 1029 30.39 858 25.34 -16.5 2.4 88 -18 -0.4 -93.9 -3.697
02:14 1029 30.39 858 25.34 -16.4 2.4 90 -17.7 0.1 -93.9 -3.697
02:15 1029 30.39 858 25.34 -16.3 2.7 91 -17.5 0.6 -93.9 -3.697
02:16 1029 30.39 858 25.34 -16.2 2.9 90 -17.5 0.5 -93.9 -3.697
02:17 1029 30.39 858 25.34 -16.4 2.6 88 -18 -0.3 -93.9 -3.697
02:18 1029 30.39 858 25.34 -16.7 2 85 -18.6 -1.5 -93.9 -3.697
02:19 1029 30.39 858 25.34 -17 1.4 85 -19 -2.3 -93.9 -3.697
02:20 1029 30.39 858 25.34 -17.4 0.7 84 -19.4 -3 -94 -3.701
02:21 1029 30.39 858 25.34 -17.6 0.3 85 -19.6 -3.2 -94 -3.701
02:22 1029 30.39 858 25.34 -17.8 -0 87 -19.5 -3.1 -94 -3.701
02:23 1029 30.39 858 25.34 -17.7 0.2 90 -19 -2.1 -94 -3.701
02:24 1029 30.39 858 25.34 -17.3 0.9 93 -18.2 -0.8 -94 -3.701
02:25 1029 30.39 858 25.34 -16.7 2 95 -17.3 0.9 -94 -3.701
02:26 1029 30.39 858 25.34 -15.5 4.1 98 -15.8 3.6 -94 -3.701
02:27 1029 30.39 858 25.34 -14.3 6.4 99 -14.4 6.1 -94 -3.701
02:28 1029 30.39 858 25.34 -13.4 8 99 -13.5 7.7 -94 -3.701
02:29 1029 30.39 858 25.34 -13.9 7 95 -14.6 5.8 -93.9 -3.697
02:30 1029 30.39 858 25.34 -14.9 5.1 87 -16.7 2 -94 -3.701
02:31 1029 30.39 858 25.34 -15.3 4.4 91 -16.4 2.4 -93.9 -3.697
02:32 1029 30.39 858 25.34 -14.6 5.7 96 -15.1 4.8 -93.9 -3.697
02:33 1029 30.39 858 25.34 -13.9 7.1 97 -14.2 6.4 -93.9 -3.697
02:34 1029 30.39 858 25.34 -13.3 8 97 -13.7 7.3 -93.9 -3.697
02:35 1029 30.39 858 25.34 -13.2 8.3 96 -13.6 7.4 -93.9 -3.697
02:36 1029 30.39 858 25.34 -12.7 9.2 96 -13.1 8.4 -93.9 -3.697
02:37 1029 30.39 858 25.34 -12.9 8.9 91 -14.1 6.6 -93.9 -3.697
02:38 1029 30.39 858 25.34 -13.3 8 89 -14.7 5.5 -93.9 -3.697
02:39 1029 30.39 858 25.34 -13.4 7.9 89 -14.8 5.4 -93.9 -3.697
02:40 1029 30.39 858 25.34 -13.7 7.4 87 -15.3 4.4 -93.9 -3.697
02:41 1029 30.39 858 25.34 -14.1 6.7 84 -16.2 2.9 -93.9 -3.697
02:42 1029 30.39 858 25.34 -14.6 5.7 84 -16.7 1.9 -93.9 -3.697
02:43 1029 30.39 858 25.34 -15 5 86 -16.9 1.6 -93.9 -3.697
02:44 1029 30.39 858 25.34 -15.2 4.6 87 -16.9 1.7 -93.9 -3.697
02:45 1029 30.39 858 25.34 -15.3 4.5 88 -16.8 1.7 -93.9 -3.697
02:46 1029 30.39 858 25.34 -15.3 4.5 89 -16.7 1.9 -93.9 -3.697
02:47 1029 30.39 858 25.34 -15.2 4.6 89 -16.7 2 -93.9 -3.697
02:48 1029 30.39 858 25.34 -15.3 4.5 88 -16.9 1.6 -93.9 -3.697
02:49 1029 30.39 858 25.34 -15.6 4 85 -17.6 0.3 -93.9 -3.697
02:50 1029 30.39 858 25.34 -16.2 2.9 82 -18.5 -1.4 -93.9 -3.697
02:51 1029 30.39 858 25.34 -16.7 2 84 -18.8 -1.9 -93.9 -3.697
02:52 1029 30.39 858 25.34 -17 1.5 85 -19 -2.2 -94 -3.701
02:53 1029 30.39 858 25.34 -17.2 1.1 85 -19.1 -2.4 -94 -3.701
02:54 1029 30.39 858 25.34 -17.4 0.6 85 -19.3 -2.8 -94 -3.701
02:55 1029 30.39 858 25.34 -17.5 0.5 87 -19.2 -2.6 -94 -3.701
02:56 1029 30.39 858 25.34 -17.5 0.5 87 -19.2 -2.5 -94 -3.701
02:57 1029 30.39 858 25.34 -17.5 0.5 88 -19 -2.3 -94 -3.701
02:58 1029 30.39 858 25.34 -17.3 0.9 90 -18.5 -1.3 -94 -3.701
02:59 1029 30.39 858 25.34 -16.9 1.5 91 -18 -0.5 -94 -3.701
03:00 1029 30.39 858 25.34 -16.9 1.6 89 -18.4 -1.1 -94 -3.701
03:01 1029 30.39 858 25.34 -17.2 1 86 -19 -2.2 -94 -3.701
03:02 1029 30.39 858 25.34 -17.3 0.8 87 -19 -2.2 -94 -3.701
03:03 1029 30.39 858 25.34 -17.3 0.8 87 -19 -2.2 -94 -3.701
03:04 1029 30.39 858 25.34 -17.4 0.7 87 -19 -2.2 -94 -3.701
03:05 1029 30.39 858 25.34 -17.3 0.8 87 -19 -2.2 -94 -3.701
03:06 1029 30.39 858 25.34 -17.4 0.7 87 -19 -2.2 -94 -3.701
03:07 1029 30.39 858 25.34 -17.4 0.8 88 -19 -2.1 -94 -3.701
03:08 1029 30.39 858 25.34 -17.3 0.8 88 -18.8 -1.9 -94 -3.701
03:09 1029 30.39 858 25.34 -17.3 0.9 88 -18.9 -1.9 -94 -3.701
03:10 1029 30.39 858 25.34 -17.4 0.8 87 -19 -2.2 -94 -3.701
03:11 1029 30.39 858 25.34 -17.3 0.8 88 -18.9 -2 -94 -3.701
03:12 1029 30.39 858 25.34 -17.3 0.9 88 -18.8 -1.8 -94 -3.701
03:13 1029 30.39 858 25.34 -17.2 1.1 89 -18.6 -1.4 -94 -3.701
03:14 1029 30.39 858 25.34 -17.1 1.2 88 -18.6 -1.5 -94 -3.701
03:15 1028 30.36 858 25.34 -17.1 1.2 88 -18.7 -1.6 -94 -3.701
03:16 1028 30.36 858 25.34 -17.2 1.1 87 -18.8 -1.9 -94 -3.701
03:17 1028 30.36 858 25.34 -17.2 1 87 -18.9 -2.1 -94 -3.701
03:18 1028 30.36 858 25.34 -17.3 0.8 87 -19.1 -2.3 -94 -3.701
03:19 1028 30.36 858 25.34 -17.3 0.8 87 -19 -2.2 -94 -3.701
03:20 1028 30.36 858 25.34 -17.4 0.8 87 -19 -2.2 -94 -3.701
03:21 1028 30.36 858 25.34 -17.4 0.8 88 -19 -2.1 -94 -3.701
03:22 1028 30.36 858 25.34 -17.3 0.9 88 -18.9 -2 -94 -3.701
03:23 1028 30.36 858 25.34 -17.3 0.9 87 -18.9 -2 -94 -3.701
03:24 1028 30.36 858 25.34 -17.3 1 87 -18.9 -2 -94 -3.701
03:25 1028 30.36 858 25.34 -17.2 1 88 -18.8 -1.8 -94 -3.701
03:26 1028 30.36 858 25.34 -17.1 1.2 87 -18.8 -1.8 -94 -3.701
03:27 1028 30.36 858 25.34 -17.3 0.9 85 -19.2 -2.5 -94 -3.701
03:28 1028 30.36 858 25.34 -17.5 0.6 85 -19.4 -2.9 -94 -3.701
03:29 1029 30.39 858 25.34 -17.6 0.2 85 -19.5 -3.2 -94 -3.701
03:30 1029 30.39 858 25.34 -17.7 0.1 86 -19.6 -3.3 -94.1 -3.705
03:31 1029 30.39 858 25.34 -17.8 -0 86 -19.6 -3.2 -94.1 -3.705
03:32 1029 30.39 858 25.34 -17.7 0.1 87 -19.4 -2.9 -94.1 -3.705
03:33 1029 30.39 858 25.34 -17.6 0.3 88 -19.2 -2.5 -94.1 -3.705
03:34 1029 30.39 858 25.34 -17.5 0.5 88 -19.1 -2.3 -94.1 -3.705
03:35 1029 30.39 858 25.34 -17.4 0.7 88 -18.9 -2.1 -94.1 -3.705
03:36 1029 30.39 858 25.34 -17.3 1 89 -18.7 -1.6 -94.1 -3.705
03:37 1029 30.39 858 25.34 -17.1 1.3 88 -18.6 -1.5 -94.1 -3.705
03:38 1029 30.39 858 25.34 -17.1 1.3 88 -18.7 -1.6 -94.1 -3.705
03:39 1029 30.39 858 25.34 -17 1.4 89 -18.4 -1.2 -94.1 -3.705
03:40 1029 30.39 858 25.34 -16.7 1.9 89 -18.1 -0.5 -94.1 -3.705
03:41 1029 30.39 858 25.34 -16.6 2.1 88 -18.1 -0.6 -94.1 -3.705
03:42 1029 30.39 858 25.34 -16.6 2.1 87 -18.3 -1 -94.1 -3.705
03:43 1029 30.39 858 25.34 -16.8 1.7 86 -18.7 -1.6 -94.1 -3.705
03:44 1028 30.36 858 25.34 -17 1.5 86 -18.8 -1.8 -94.1 -3.705
03:45 1029 30.39 858 25.34 -16.9 1.5 88 -18.5 -1.2 -94.1 -3.705
03:46 1029 30.39 858 25.34 -16.8 1.7 88 -18.4 -1.2 -94.1 -3.705
03:47 1029 30.39 858 25.34 -16.9 1.6 86 -18.7 -1.6 -94.1 -3.705
03:48 1029 30.39 858 25.34 -17.1 1.2 85 -19 -2.3 -94.1 -3.705
03:49 1029 30.39 858 25.34 -17.3 0.8 85 -19.3 -2.7 -94.1 -3.705
03:50 1029 30.39 858 25.34 -17.6 0.4 84 -19.6 -3.3 -94.1 -3.705
03:51 1029 30.39 858 25.34 -17.5 0.4 88 -19.1 -2.4 -94.1 -3.705
03:52 1029 30.39 858 25.34 -17.5 0.5 85 -19.5 -3.1 -94.1 -3.705
03:53 1029 30.39 858 25.34 -17.5 0.5 87 -19.1 -2.4 -94.1 -3.705
03:54 1029 30.39 858 25.34 -17.5 0.5 88 -19.1 -2.3 -94.1 -3.705
03:55 1029 30.39 858 25.34 -17.4 0.7 88 -19 -2.1 -94.1 -3.705
03:56 1029 30.39 858 25.34 -17.4 0.8 87 -19.1 -2.4 -94.1 -3.705
03:57 1029 30.39 858 25.34 -17.5 0.5 87 -19.2 -2.5 -94.1 -3.705
03:58 1029 30.39 858 25.34 -17 1.4 92 -18.1 -0.5 -94.1 -3.705
03:59 1029 30.39 858 25.34 -16.6 2.2 91 -17.7 0.1 -94.1 -3.705
04:00 1029 30.39 858 25.34 -16.5 2.3 88 -18 -0.4 -94.1 -3.705
04:01 1029 30.39 858 25.34 -16.5 2.3 87 -18.2 -0.8 -94.1 -3.705
04:02 1029 30.39 858 25.34 -16.7 2 85 -18.6 -1.4 -94.1 -3.705
04:03 1029 30.39 858 25.34 -16.9 1.6 85 -18.9 -2 -94.1 -3.705
04:04 1029 30.39 858 25.34 -17.1 1.3 84 -19.1 -2.5 -94.1 -3.705
04:05 1029 30.39 858 25.34 -17.3 0.8 84 -19.3 -2.8 -94.1 -3.705
04:06 1029 30.39 858 25.34 -17.4 0.6 86 -19.3 -2.8 -94.1 -3.705
04:07 1029 30.39 858 25.34 -17.4 0.6 86 -19.3 -2.7 -94.1 -3.705
04:08 1029 30.39 858 25.34 -17.4 0.7 87 -19.1 -2.4 -94.1 -3.705
04:09 1029 30.39 858 25.34 -17.2 1 88 -18.8 -1.9 -94.1 -3.705
04:10 1029 30.39 858 25.34 -17.1 1.2 87 -18.7 -1.7 -94.1 -3.705
04:11 1029 30.39 858 25.34 -17 1.3 86 -18.8 -1.8 -94.1 -3.705
04:12 1029 30.39 858 25.34 -17 1.4 87 -18.7 -1.6 -94.1 -3.705
04:13 1029 30.39 858 25.34 -17.1 1.3 86 -18.9 -2.1 -94.1 -3.705
04:14 1029 30.39 858 25.34 -17.2 1.1 85 -19.1 -2.5 -94.1 -3.705
04:15 1029 30.39 858 25.34 -17.4 0.8 84 -19.4 -3 -94.1 -3.705
04:16 1029 30.39 858 25.34 -17.7 0.1 82 -20 -4 -94.1 -3.705
04:17 1029 30.39 858 25.34 -18 -0.4 83 -20.2 -4.4 -94.1 -3.705
04:18 1029 30.39 858 25.34 -18.1 -0.6 85 -20 -4 -94.1 -3.705
04:19 1029 30.39 858 25.34 -18 -0.3 87 -19.6 -3.3 -94.1 -3.705
04:20 1029 30.39 858 25.34 -17.8 -0.1 86 -19.6 -3.3 -94.1 -3.705
04:21 1029 30.39 858 25.34 -17.8 0 87 -19.4 -3 -94.1 -3.705
04:22 1029 30.39 858 25.34 -17.7 0.1 86 -19.5 -3.2 -94.1 -3.705
04:23 1029 30.39 858 25.34 -17.8 -0.1 84 -19.9 -3.8 -94.1 -3.705
04:24 1029 30.39 858 25.34 -17.8 -0.1 87 -19.5 -3 -94.1 -3.705
04:25 1029 30.39 858 25.34 -17.6 0.4 88 -19.1 -2.4 -94.1 -3.705
04:26 1029 30.39 858 25.34 -17.5 0.6 87 -19.2 -2.5 -94.1 -3.705
04:27 1029 30.39 858 25.34 -17.4 0.6 86 -19.2 -2.5 -94.1 -3.705
04:28 1029 30.39 858 25.34 -17.3 0.8 88 -18.8 -1.8 -94.1 -3.705
04:29 1029 30.39 858 25.34 -17 1.4 90 -18.3 -0.9 -94.1 -3.705
04:30 1029 30.39 858 25.34 -16.6 2.1 89 -18 -0.4 -94.1 -3.705
04:31 1029 30.39 858 25.34 -16.5 2.3 88 -18.1 -0.5 -94.1 -3.705
04:32 1029 30.39 858 25.34 -16.4 2.4 88 -18 -0.4 -94.1 -3.705
04:33 1029 30.39 858 25.34 -16.3 2.7 88 -17.8 -0 -94.1 -3.705
04:34 1029 30.39 858 25.34 -16.3 2.7 85 -18.2 -0.8 -94.1 -3.705
04:35 1029 30.39 858 25.34 -16.7 1.9 82 -19.1 -2.3 -94.1 -3.705
04:36 1029 30.39 858 25.34 -17.2 1 82 -19.6 -3.3 -94.1 -3.705
04:37 1029 30.39 858 25.34 -17.6 0.4 83 -19.8 -3.7 -94.1 -3.705
04:38 1029 30.39 858 25.34 -17.8 0.1 84 -19.9 -3.8 -94.1 -3.705
04:39 1029 30.39 858 25.34 -17.9 -0.2 84 -19.9 -3.9 -94.1 -3.705
04:40 1029 30.39 858 25.34 -18 -0.3 85 -20 -3.9 -94.1 -3.705
04:41 1029 30.39 858 25.34 -18.2 -0.7 83 -20.4 -4.8 -94.1 -3.705
04:42 1029 30.39 858 25.34 -18.4 -1.1 84 -20.4 -4.8 -94.1 -3.705
04:43 1029 30.39 858 25.34 -18.3 -0.9 87 -19.9 -3.9 -94.1 -3.705
04:44 1028 30.36 858 25.34 -18 -0.4 88 -19.6 -3.2 -94.1 -3.705
04:45 1028 30.36 858 25.34 -17.9 -0.1 87 -19.5 -3.1 -94.1 -3.705
04:46 1028 30.36 858 25.34 -17.6 0.2 88 -19.2 -2.5 -94.1 -3.705
04:47 1028 30.36 858 25.34 -17.4 0.6 88 -18.9 -2.1 -94.1 -3.705
04:48 1029 30.39 858 25.34 -17.2 1 88 -18.8 -1.9 -94.1 -3.705
04:49 1029 30.39 858 25.34 -17.2 1 86 -19 -2.2 -94.1 -3.705
04:50 1028 30.36 858 25.34 -17.3 0.8 85 -19.2 -2.6 -94.1 -3.705
04:51 1028 30.36 858 25.34 -17.4 0.7 85 -19.3 -2.8 -94.1 -3.705
04:52 1028 30.36 858 25.34 -17.6 0.4 84 -19.7 -3.5 -94.2 -3.709
04:53 1028 30.36 858 25.34 -17.9 -0.2 83 -20.2 -4.3 -94.2 -3.709
04:54 1028 30.36 858 25.34 -18.2 -0.8 83 -20.5 -4.8 -94.2 -3.709
04:55 1028 30.36 858 25.34 -18.4 -1.1 83 -20.6 -5 -94.2 -3.709
04:56 1028 30.36 858 25.34 -18.6 -1.4 84 -20.6 -5.2 -94.2 -3.709
04:57 1028 30.36 858 25.34 -18.6 -1.5 84 -20.6 -5.1 -94.2 -3.709
04:58 1029 30.39 858 25.34 -18.6 -1.5 85 -20.6 -5 -94.2 -3.709
04:59 1029 30.39 858 25.34 -18.6 -1.4 85 -20.5 -4.9 -94.2 -3.709
05:00 1029 30.39 858 25.34 -18.5 -1.3 86 -20.3 -4.6 -94.2 -3.709
05:01 1029 30.39 858 25.34 -18.4 -1.2 85 -20.3 -4.6 -94.2 -3.709
05:02 1029 30.39 858 25.34 -18.4 -1 87 -20 -4.1 -94.2 -3.709
05:03 1029 30.39 858 25.34 -18.2 -0.7 86 -19.9 -3.9 -94.2 -3.709
05:04 1029 30.39 858 25.34 -18.1 -0.6 86 -19.9 -3.9 -94.2 -3.709
05:05 1029 30.39 858 25.34 -18 -0.4 88 -19.6 -3.2 -94.2 -3.709
05:06 1029 30.39 858 25.34 -17.7 0.1 87 -19.3 -2.8 -94.2 -3.709
05:07 1029 30.39 858 25.34 -17.6 0.3 86 -19.4 -3 -94.2 -3.709
05:08 1029 30.39 858 25.34 -17.7 0.1 85 -19.6 -3.3 -94.2 -3.709
05:09 1029 30.39 858 25.34 -17.7 0.1 86 -19.6 -3.3 -94.2 -3.709
05:10 1029 30.39 858 25.34 -17.8 -0 85 -19.8 -3.6 -94.2 -3.709
05:11 1029 30.39 858 25.34 -18 -0.3 83 -20.2 -4.4 -94.2 -3.709
05:12 1029 30.39 858 25.34 -18.2 -0.8 84 -20.3 -4.5 -94.2 -3.709
05:13 1029 30.39 858 25.34 -18.1 -0.6 86 -19.9 -3.9 -94.2 -3.709
05:14 1029 30.39 858 25.34 -18.1 -0.5 86 -19.9 -3.9 -94.2 -3.709
05:15 1029 30.39 858 25.34 -18.1 -0.5 85 -20 -4 -94.2 -3.709
05:16 1029 30.39 858 25.34 -17.9 -0.1 89 -19.3 -2.8 -94.2 -3.709
05:17 1029 30.39 858 25.34 -17.4 0.7 89 -18.8 -1.8 -94.2 -3.709
05:18 1029 30.39 858 25.34 -17.1 1.2 90 -18.3 -1 -94.2 -3.709
05:19 1029 30.39 858 25.34 -16.7 1.9 91 -17.9 -0.2 -94.2 -3.709
05:20 1029 30.39 858 25.34 -16.5 2.2 89 -18 -0.3 -94.2 -3.709
05:21 1029 30.39 858 25.34 -16.6 2.2 87 -18.2 -0.7 -94.2 -3.709
05:22 1029 30.39 858 25.34 -16.6 2 86 -18.5 -1.3 -94.2 -3.709
05:23 1029 30.39 858 25.34 -16.8 1.8 85 -18.8 -1.8 -94.2 -3.709
05:24 1029 30.39 858 25.34 -17 1.4 85 -19 -2.2 -94.2 -3.709
05:25 1029 30.39 858 25.34 -17.1 1.2 85 -19.1 -2.4 -94.2 -3.709
05:26 1029 30.39 858 25.34 -17.1 1.2 86 -18.9 -2 -94.2 -3.709
05:27 1029 30.39 858 25.34 -16.9 1.6 89 -18.3 -0.9 -94.2 -3.709
05:28 1029 30.39 858 25.34 -16.5 2.4 92 -17.4 0.6 -94.2 -3.709
05:29 1029 30.39 858 25.34 -15.8 3.5 93 -16.7 1.9 -94.2 -3.709
05:30 1029 30.39 858 25.34 -15.3 4.4 93 -16.3 2.7 -94.2 -3.709
05:31 1029 30.39 858 25.34 -15 5.1 92 -16 3.2 -94.1 -3.705
05:32 1029 30.39 858 25.34 -14.7 5.5 91 -15.9 3.4 -94.1 -3.705
05:33 1029 30.39 858 25.34 -14.6 5.8 89 -16 3.2 -94.1 -3.705
05:34 1029 30.39 858 25.34 -14.4 6.1 90 -15.8 3.6 -94.1 -3.705
05:35 1029 30.39 858 25.34 -14 6.8 90 -15.3 4.4 -94.1 -3.705
05:36 1029 30.39 858 25.34 -13.6 7.5 88 -15.2 4.6 -94.1 -3.705
05:37 1029 30.39 858 25.34 -13.5 7.7 87 -15.2 4.7 -94.1 -3.705
05:38 1029 30.39 858 25.34 -13.4 7.8 86 -15.3 4.5 -94.1 -3.705
05:39 1029 30.39 858 25.34 -13.4 7.9 86 -15.2 4.6 -94.1 -3.705
05:40 1029 30.39 858 25.34 -13.4 7.9 85 -15.4 4.2 -94.1 -3.705
05:41 1029 30.39 858 25.34 -13.5 7.6 85 -15.6 4 -94.1 -3.705
05:42 1029 30.39 858 25.34 -13.8 7.3 83 -16 3.2 -94.1 -3.705
05:43 1029 30.39 858 25.34 -14 6.7 84 -16.2 2.8 -94.1 -3.705
05:44 1029 30.39 858 25.34 -14.3 6.2 84 -16.4 2.4 -94.1 -3.705
05:45 1029 30.39 858 25.34 -14.7 5.5 82 -17.1 1.3 -94.1 -3.705
05:46 1029 30.39 858 25.34 -15.2 4.7 82 -17.6 0.3 -94.1 -3.705
05:47 1029 30.39 858 25.34 -15.6 3.9 82 -18 -0.4 -94.1 -3.705
05:48 1029 30.39 858 25.34 -15.9 3.4 83 -18.1 -0.6 -94.1 -3.705
05:49 1029 30.39 858 25.34 -16.1 3.1 84 -18.3 -0.9 -94.1 -3.705
05:50 1029 30.39 858 25.34 -16.3 2.7 84 -18.4 -1.2 -94.1 -3.705
05:51 1029 30.39 858 25.34 -16.4 2.5 84 -18.5 -1.3 -94.1 -3.705
05:52 1029 30.39 858 25.34 -16.6 2.1 83 -18.8 -1.8 -94.1 -3.705
05:53 1029 30.39 858 25.34 -16.8 1.9 84 -18.8 -1.9 -94.1 -3.705
05:54 1029 30.39 858 25.34 -16.7 1.9 86 -18.6 -1.4 -94.1 -3.705
05:55 1029 30.39 858 25.34 -16.6 2.2 87 -18.3 -0.9 -94.1 -3.705
05:56 1029 30.39 858 25.34 -16.5 2.4 86 -18.3 -0.9 -94.1 -3.705
05:57 1029 30.39 858 25.34 -16.5 2.4 85 -18.4 -1.2 -94.1 -3.705
05:58 1029 30.39 858 25.34 -16.6 2.1 84 -18.7 -1.7 -94.1 -3.705
05:59 1029 30.39 858 25.34 -16.9 1.7 84 -19 -2.2 -94.1 -3.705
06:00 1029 30.39 858 25.34 -17 1.4 85 -19 -2.3 -94.1 -3.705
06:01 1029 30.39 858 25.34 -17.1 1.1 85 -19.1 -2.5 -94.2 -3.709
06:02 1029 30.39 858 25.34 -17.2 1 85 -19.2 -2.5 -94.2 -3.709
06:03 1029 30.39 858 25.34 -17.3 1 86 -19.1 -2.4 -94.2 -3.709
06:04 1029 30.39 858 25.34 -17.2 1 86 -19 -2.1 -94.2 -3.709
06:05 1029 30.39 858 25.34 -17.1 1.1 86 -18.9 -2.1 -94.2 -3.709
06:06 1029 30.39 858 25.34 -17.1 1.3 87 -18.8 -1.8 -94.2 -3.709
06:07 1029 30.39 858 25.34 -17 1.4 86 -18.8 -1.8 -94.2 -3.709
06:08 1029 30.39 858 25.34 -16.9 1.5 87 -18.6 -1.5 -94.2 -3.709
06:09 1029 30.39 858 25.34 -16.8 1.8 87 -18.5 -1.3 -94.2 -3.709
06:10 1029 30.39 858 25.34 -16.7 1.9 86 -18.5 -1.3 -94.2 -3.709
06:11 1029 30.39 858 25.34 -16.8 1.8 86 -18.6 -1.4 -94.2 -3.709
06:12 1029 30.39 858 25.34 -16.7 1.9 86 -18.5 -1.4 -94.2 -3.709
06:13 1029 30.39 858 25.34 -16.6 2.1 88 -18.2 -0.8 -94.2 -3.709
06:14 1029 30.39 858 25.34 -16.4 2.4 88 -18 -0.4 -94.2 -3.709
06:15 1029 30.39 858 25.34 -16.2 2.9 89 -17.6 0.2 -94.2 -3.709
06:16 1029 30.39 858 25.34 -15.9 3.4 89 -17.4 0.7 -94.2 -3.709
06:17 1029 30.39 858 25.34 -15.6 4 89 -17.1 1.3 -94.1 -3.705
06:18 1029 30.39 858 25.34 -15.3 4.5 88 -16.9 1.6 -94.1 -3.705
06:19 1029 30.39 858 25.34 -15.1 4.9 87 -16.8 1.8 -94.1 -3.705
06:20 1029 30.39 858 25.34 -14.9 5.2 87 -16.6 2.1 -94.1 -3.705
06:21 1029 30.39 858 25.34 -14.6 5.6 87 -16.4 2.5 -94.1 -3.705
06:22 1029 30.39 858 25.34 -14.5 5.9 86 -16.3 2.7 -94.1 -3.705
06:23 1029 30.39 858 25.34 -14.4 6.2 86 -16.2 2.8 -94.1 -3.705
06:24 1029 30.39 858 25.34 -14.3 6.4 86 -16 3.1 -94.1 -3.705
06:25 1029 30.39 858 25.34 -14.1 6.5 86 -16.1 3.1 -94.1 -3.705
06:26 1029 30.39 858 25.34 -14.1 6.7 85 -16 3.2 -94.1 -3.705
06:27 1029 30.39 858 25.34 -14 6.9 86 -15.9 3.4 -94.1 -3.705
06:28 1029 30.39 858 25.34 -13.9 7 85 -15.9 3.3 -94.1 -3.705
06:29 1029 30.39 858 25.34 -13.8 7.1 86 -15.7 3.7 -94.1 -3.705
06:30 1029 30.39 858 25.34 -13.6 7.5 86 -15.5 4.2 -94.1 -3.705
06:31 1029 30.39 858 25.34 -13.4 7.8 85 -15.4 4.2 -94.1 -3.705
06:32 1029 30.39 858 25.34 -13.2 8.2 85 -15.3 4.5 -94.1 -3.705
06:33 1029 30.39 858 25.34 -13.1 8.4 84 -15.3 4.4 -94.1 -3.705
06:34 1029 30.39 858 25.34 -13 8.6 84 -15.2 4.6 -94.1 -3.705
06:35 1029 30.39 858 25.34 -13 8.7 83 -15.3 4.5 -94.1 -3.705
06:36 1029 30.39 858 25.34 -13 8.7 83 -15.3 4.4 -94.1 -3.705
06:37 1029 30.39 858 25.34 -13 8.7 82 -15.4 4.3 -94.1 -3.705
06:38 1029 30.39 858 25.34 -13 8.5 82 -15.5 4.1 -94.1 -3.705
06:39 1029 30.39 858 25.34 -13.1 8.4 82 -15.6 4 -94.1 -3.705
06:40 1029 30.39 858 25.34 -13.2 8.2 82 -15.7 3.8 -94.1 -3.705
06:41 1029 30.39 858 25.34 -13.3 8.1 82 -15.7 3.7 -94.1 -3.705
06:42 1029 30.39 858 25.34 -13.4 7.9 82 -15.8 3.6 -94.1 -3.705
06:43 1029 30.39 858 25.34 -13.5 7.7 83 -15.9 3.4 -94.1 -3.705
06:44 1029 30.39 858 25.34 -13.6 7.5 83 -15.9 3.3 -94.1 -3.705
06:45 1029 30.39 858 25.34 -13.7 7.4 84 -15.8 3.5 -94.1 -3.705
06:46 1029 30.39 858 25.34 -13.6 7.4 82 -16.1 3 -94.1 -3.705
06:47 1029 30.39 858 25.34 -14 6.9 79 -16.9 1.5 -94.1 -3.705
06:48 1029 30.39 858 25.34 -14.5 6 79 -17.3 0.9 -94.1 -3.705
06:49 1029 30.39 858 25.34 -14.8 5.4 82 -17.2 1 -94.1 -3.705
06:50 1029 30.39 858 25.34 -14.8 5.3 82 -17.3 0.8 -94.1 -3.705
06:51 1029 30.39 858 25.34 -14.9 5.1 81 -17.5 0.6 -94.1 -3.705
06:52 1029 30.39 858 25.34 -15 4.9 82 -17.4 0.6 -94.1 -3.705
06:53 1029 30.39 858 25.34 -15 5 83 -17.2 1 -94.1 -3.705
06:54 1029 30.39 858 25.34 -15 5.1 82 -17.4 0.7 -94.1 -3.705
06:55 1029 30.39 858 25.34 -15 4.9 81 -17.6 0.3 -94.1 -3.705
06:56 1029 30.39 858 25.34 -15.2 4.7 81 -17.7 0.1 -94.1 -3.705
06:57 1029 30.39 858 25.34 -15.3 4.4 81 -17.9 -0.2 -94.1 -3.705
06:58 1029 30.39 858 25.34 -15.5 4.1 82 -18 -0.3 -94.1 -3.705
06:59 1029 30.39 858 25.34 -15.5 4.2 84 -17.6 0.2 -94.1 -3.705
07:00 1029 30.39 858 25.34 -15.3 4.5 83 -17.5 0.5 -94.1 -3.705
07:01 1029 30.39 858 25.34 -15.3 4.5 82 -17.7 0.2 -94.1 -3.705
07:02 1029 30.39 858 25.34 -15.2 4.6 83 -17.5 0.5 -94.1 -3.705
07:03 1029 30.39 858 25.34 -15.1 4.8 83 -17.3 0.8 -94.1 -3.705
07:04 1029 30.39 858 25.34 -15 5 82 -17.4 0.7 -94.1 -3.705
07:05 1029 30.39 858 25.34 -14.9 5.2 82 -17.3 0.9 -94.1 -3.705
07:06 1029 30.39 858 25.34 -14.7 5.5 82 -17.1 1.2 -94.1 -3.705
07:07 1029 30.39 858 25.34 -14.6 5.8 80 -17.2 1 -94.1 -3.705
07:08 1029 30.39 858 25.34 -14.6 5.8 79 -17.4 0.6 -94.1 -3.705
07:09 1029 30.39 858 25.34 -14.6 5.7 80 -17.4 0.7 -94.1 -3.705
07:10 1029 30.39 858 25.34 -14.6 5.7 80 -17.3 0.8 -94 -3.701
07:11 1029 30.39 858 25.34 -14.6 5.6 79 -17.5 0.4 -94.1 -3.705
07:12 1029 30.39 858 25.34 -14.8 5.4 79 -17.7 0.1 -94.1 -3.705
07:13 1029 30.39 858 25.34 -14.9 5.2 80 -17.7 0.2 -94.1 -3.705
07:14 1029 30.39 858 25.34 -14.9 5.1 79 -17.8 -0 -94.1 -3.705
07:15 1029 30.39 858 25.34 -15 5.1 81 -17.5 0.5 -94.1 -3.705
07:16 1029 30.39 858 25.34 -14.9 5.3 80 -17.6 0.3 -94.1 -3.705
07:17 1029 30.39 858 25.34 -14.9 5.3 79 -17.8 -0 -94.1 -3.705
07:18 1029 30.39 858 25.34 -15 5 79 -17.9 -0.2 -94.1 -3.705
07:19 1029 30.39 858 25.34 -15.1 4.8 79 -17.9 -0.2 -94.1 -3.705
07:20 1029 30.39 858 25.34 -15.1 4.8 80 -17.9 -0.2 -94.1 -3.705
07:21 1029 30.39 858 25.34 -15.2 4.6 79 -18.1 -0.6 -94.1 -3.705
07:22 1029 30.39 858 25.34 -15.3 4.4 81 -17.9 -0.2 -94.1 -3.705
07:23 1029 30.39 858 25.34 -15.3 4.6 81 -17.8 -0.1 -94.1 -3.705
07:24 1029 30.39 858 25.34 -15.3 4.5 80 -18 -0.4 -94.1 -3.705
07:25 1029 30.39 858 25.34 -15.3 4.4 80 -18.1 -0.5 -94.1 -3.705
07:26 1029 30.39 858 25.34 -15.3 4.4 82 -17.8 -0 -94.1 -3.705
07:27 1029 30.39 858 25.34 -15.2 4.6 81 -17.9 -0.2 -94.1 -3.705
07:28 1029 30.39 858 25.34 -15.2 4.6 80 -17.9 -0.2 -94.1 -3.705
07:29 1029 30.39 858 25.34 -15.1 4.8 84 -17.2 1 -94.1 -3.705
07:30 1029 30.39 858 25.34 -14.7 5.5 84 -16.9 1.6 -94.1 -3.705
07:31 1029 30.39 858 25.34 -14.3 6.2 82 -16.8 1.8 -94.1 -3.705
07:32 1029 30.39 858 25.34 -14.2 6.5 81 -16.7 2 -94.1 -3.705
07:33 1029 30.39 858 25.34 -14 6.7 79 -16.9 1.5 -94 -3.701
07:34 1029 30.39 858 25.34 -14.2 6.5 77 -17.3 0.8 -94 -3.701
07:35 1029 30.39 858 25.34 -14.4 6.1 78 -17.4 0.8 -94 -3.701
07:36 1029 30.39 858 25.34 -14.5 6 80 -17.2 1 -94 -3.701
07:37 1029 30.39 858 25.34 -14.5 6 80 -17.2 1 -94 -3.701
07:38 1029 30.39 858 25.34 -14.5 6 80 -17.3 0.9 -94 -3.701
07:39 1029 30.39 858 25.34 -14.6 5.8 79 -17.4 0.7 -94 -3.701
07:40 1029 30.39 858 25.34 -14.7 5.6 79 -17.5 0.5 -94 -3.701
07:41 1029 30.39 858 25.34 -14.8 5.4 79 -17.6 0.3 -94 -3.701
07:42 1029 30.39 858 25.34 -14.9 5.2 78 -17.9 -0.3 -94 -3.701
07:43 1029 30.39 858 25.34 -15.2 4.7 77 -18.4 -1 -94 -3.701
07:44 1029 30.39 858 25.34 -15.5 4 75 -19 -2.1 -94 -3.701
07:45 1029 30.39 858 25.34 -16 3.3 76 -19.3 -2.7 -94 -3.701
07:46 1029 30.39 858 25.34 -16.3 2.6 78 -19.3 -2.7 -94 -3.701
07:47 1029 30.39 858 25.34 -16.5 2.2 79 -19.4 -3 -94 -3.701
07:48 1029 30.39 858 25.34 -16.7 1.9 80 -19.3 -2.8 -94 -3.701
07:49 1029 30.39 858 25.34 -16.7 2 83 -18.9 -2.1 -94.1 -3.705
07:50 1029 30.39 858 25.34 -16.5 2.4 84 -18.6 -1.5 -94.1 -3.705
07:51 1029 30.39 858 25.34 -16.3 2.7 81 -18.8 -1.9 -94 -3.701
07:52 1029 30.39 858 25.34 -16.3 2.6 81 -18.9 -2 -94 -3.701
07:53 1029 30.39 858 25.34 -16.4 2.6 81 -18.9 -2.1 -94 -3.701
07:54 1029 30.39 858 25.34 -16.4 2.5 81 -19 -2.1 -94.1 -3.705
07:55 1029 30.39 858 25.34 -16.4 2.4 80 -19 -2.3 -94.1 -3.705
07:56 1029 30.39 858 25.34 -16.5 2.4 81 -19.1 -2.3 -94.1 -3.705
07:57 1029 30.39 858 25.34 -16.5 2.4 81 -19.1 -2.3 -94.1 -3.705
07:58 1029 30.39 858 25.34 -16.5 2.3 81 -19.1 -2.4 -94.1 -3.705
07:59 1029 30.39 858 25.34 -16.5 2.2 81 -19.1 -2.4 -94.1 -3.705
08:00 1029 30.39 858 25.34 -16.6 2.2 81 -19.1 -2.4 -94.1 -3.705
08:01 1029 30.39 858 25.34 -16.6 2.2 81 -19.1 -2.5 -94.1 -3.705
08:02 1029 30.39 858 25.34 -16.6 2.2 81 -19.1 -2.3 -94.1 -3.705
08:03 1029 30.39 858 25.34 -16.5 2.2 81 -19 -2.2 -94.1 -3.705
08:04 1029 30.39 858 25.34 -16.5 2.3 82 -19 -2.1 -94.1 -3.705
08:05 1029 30.39 858 25.34 -16.4 2.5 82 -18.8 -1.8 -94.1 -3.705
08:06 1029 30.39 858 25.34 -16.3 2.6 82 -18.8 -1.8 -94.1 -3.705
08:07 1029 30.39 858 25.34 -16.3 2.7 81 -18.9 -2 -94.1 -3.705
08:08 1029 30.39 858 25.34 -16.4 2.6 80 -19.1 -2.3 -94.1 -3.705
08:09 1029 30.39 858 25.34 -16.4 2.6 82 -18.7 -1.7 -94.1 -3.705
08:10 1029 30.39 858 25.34 -16.2 2.9 83 -18.5 -1.3 -94.1 -3.705
08:11 1029 30.39 858 25.34 -16.1 3.1 80 -18.8 -1.8 -94.1 -3.705
08:12 1029 30.39 858 25.34 -16.2 2.9 80 -18.9 -2.1 -94.1 -3.705
08:13 1029 30.39 858 25.34 -16.2 2.8 80 -18.9 -2.1 -94.1 -3.705
08:14 1029 30.39 858 25.34 -16.3 2.6 80 -19.1 -2.3 -94.1 -3.705
08:15 1029 30.39 858 25.34 -16.4 2.5 81 -19 -2.1 -94.1 -3.705
08:16 1029 30.39 858 25.34 -16.3 2.7 84 -18.4 -1.1 -94.1 -3.705
08:17 1029 30.39 858 25.34 -16 3.3 84 -18.1 -0.7 -94.1 -3.705
08:18 1029 30.39 858 25.34 -15.8 3.6 81 -18.4 -1.1 -94.1 -3.705
08:19 1029 30.39 858 25.34 -15.8 3.6 80 -18.5 -1.3 -94.1 -3.705
08:20 1029 30.39 858 25.34 -15.8 3.6 81 -18.4 -1 -94.1 -3.705
08:21 1029 30.39 858 25.34 -15.7 3.8 82 -18.1 -0.7 -94.1 -3.705
08:22 1029 30.39 858 25.34 -15.5 4.2 81 -18.1 -0.5 -94.1 -3.705
08:23 1029 30.39 858 25.34 -15.4 4.3 81 -18 -0.4 -94.1 -3.705
08:24 1029 30.39 858 25.34 -15.3 4.5 81 -17.9 -0.1 -94.1 -3.705
08:25 1029 30.39 858 25.34 -15.2 4.6 80 -17.9 -0.3 -94.1 -3.705
08:26 1029 30.39 858 25.34 -15.2 4.6 80 -17.9 -0.2 -94.1 -3.705
08:27 1029 30.39 858 25.34 -15.2 4.6 80 -17.9 -0.2 -94.1 -3.705
08:28 1029 30.39 858 25.34 -15.2 4.6 80 -17.9 -0.2 -94.1 -3.705
08:29 1029 30.39 858 25.34 -15.3 4.5 81 -17.9 -0.2 -94.1 -3.705
08:30 1029 30.39 858 25.34 -15.3 4.4 81 -17.9 -0.2 -94.1 -3.705
08:31 1029 30.39 858 25.34 -15.3 4.5 81 -17.9 -0.2 -94.1 -3.705
08:32 1029 30.39 858 25.34 -15.3 4.4 81 -17.9 -0.2 -94.1 -3.705
08:33 1029 30.39 858 25.34 -15.3 4.4 82 -17.8 -0.1 -94.1 -3.705
08:34 1029 30.39 858 25.34 -15.3 4.5 81 -17.8 -0 -94.1 -3.705
08:35 1029 30.39 858 25.34 -15.3 4.5 81 -17.8 0 -94.1 -3.705
08:36 1029 30.39 858 25.34 -15.2 4.6 81 -17.8 0 -94.1 -3.705
08:37 1029 30.39 858 25.34 -15.2 4.7 82 -17.6 0.3 -94 -3.701
08:38 1029 30.39 858 25.34 -15.1 4.8 82 -17.6 0.4 -94 -3.701
08:39 1029 30.39 858 25.34 -15 4.9 82 -17.5 0.6 -94 -3.701
08:40 1029 30.39 858 25.34 -15 5.1 82 -17.4 0.6 -94 -3.701
08:41 1029 30.39 858 25.34 -15.1 4.9 77 -18.2 -0.8 -94 -3.701
08:42 1029 30.39 858 25.34 -15.4 4.3 75 -18.9 -2 -94.1 -3.705
08:43 1029 30.39 858 25.34 -15.7 3.8 76 -19 -2.3 -94.1 -3.705
08:44 1029 30.39 858 25.34 -15.9 3.3 79 -18.8 -1.9 -94.1 -3.705
08:45 1029 30.39 858 25.34 -16 3.3 79 -18.8 -1.8 -94.1 -3.705
08:46 1029 30.39 858 25.34 -16 3.3 80 -18.7 -1.6 -94.1 -3.705
08:47 1029 30.39 858 25.34 -15.9 3.4 81 -18.5 -1.3 -94.1 -3.705
08:48 1029 30.39 858 25.34 -15.8 3.5 80 -18.5 -1.4 -94.1 -3.705
08:49 1029 30.39 858 25.34 -15.8 3.7 80 -18.4 -1.2 -94.1 -3.705
08:50 1029 30.39 858 25.34 -15.7 3.7 80 -18.4 -1.1 -94.1 -3.705
08:51 1029 30.39 858 25.34 -15.7 3.8 80 -18.3 -1 -94.1 -3.705
08:52 1029 30.39 859 25.37 -15.6 3.9 80 -18.3 -1 -94.1 -3.705
08:53 1029 30.39 859 25.37 -15.6 3.9 80 -18.3 -0.9 -94.1 -3.705
08:54 1029 30.39 858 25.34 -15.5 4.1 82 -18 -0.4 -94.1 -3.705
08:55 1029 30.39 859 25.37 -15.4 4.4 82 -17.7 0.1 -94.1 -3.705
08:56 1029 30.39 858 25.34 -15.2 4.6 82 -17.6 0.3 -94 -3.701
08:57 1029 30.39 858 25.34 -15.1 4.9 82 -17.6 0.4 -94 -3.701
08:58 1029 30.39 859 25.37 -15 5.1 80 -17.6 0.3 -94 -3.701
08:59 1029 30.39 859 25.37 -15 5.1 79 -17.8 0 -94 -3.701
09:00 1029 30.39 859 25.37 -14.9 5.2 80 -17.7 0.2 -94 -3.701
09:01 1029 30.39 859 25.37 -14.9 5.3 80 -17.6 0.3 -94 -3.701
09:02 1029 30.39 859 25.37 -14.8 5.4 80 -17.5 0.4 -94 -3.701
09:03 1029 30.39 859 25.37 -14.7 5.6 79 -17.6 0.4 -94 -3.701
09:04 1029 30.39 859 25.37 -14.6 5.8 79 -17.5 0.5 -94 -3.701
09:05 1029 30.39 859 25.37 -14.6 5.8 78 -17.6 0.3 -94 -3.701
09:06 1029 30.39 859 25.37 -14.6 5.8 78 -17.6 0.4 -94 -3.701
09:07 1029 30.39 859 25.37 -14.6 5.7 76 -17.9 -0.3 -94 -3.701
09:08 1029 30.39 859 25.37 -14.8 5.3 76 -18.2 -0.8 -94 -3.701
09:09 1029 30.39 859 25.37 -15 4.9 78 -18.1 -0.6 -94 -3.701
09:10 1029 30.39 859 25.37 -15.2 4.6 78 -18.2 -0.8 -94 -3.701
09:11 1029 30.39 859 25.37 -15.3 4.5 79 -18.1 -0.6 -94 -3.701
09:12 1029 30.39 859 25.37 -15.3 4.4 79 -18.2 -0.8 -94 -3.701
09:13 1029 30.39 859 25.37 -15.3 4.4 80 -18 -0.5 -94 -3.701
09:14 1029 30.39 859 25.37 -15.3 4.5 79 -18.1 -0.5 -94 -3.701
09:15 1029 30.39 859 25.37 -15.2 4.7 80 -18 -0.3 -93.9 -3.697
09:16 1030 30.42 859 25.37 -15 4.9 80 -17.8 -0 -93.9 -3.697
09:17 1030 30.42 859 25.37 -14.8 5.3 80 -17.5 0.4 -93.9 -3.697
09:18 1030 30.42 859 25.37 -14.7 5.6 79 -17.5 0.5 -93.9 -3.697
09:19 1029 30.39 859 25.37 -14.6 5.7 79 -17.5 0.6 -93.9 -3.697
09:20 1030 30.42 859 25.37 -14.5 5.8 78 -17.5 0.5 -93.9 -3.697
09:21 1030 30.42 859 25.37 -14.4 6.1 79 -17.3 0.9 -93.9 -3.697
09:22 1030 30.42 859 25.37 -14.1 6.6 80 -16.9 1.6 -93.9 -3.697
09:23 1030 30.42 859 25.37 -13.8 7.3 78 -16.8 1.8 -93.9 -3.697
09:24 1030 30.42 859 25.37 -13.7 7.3 74 -17.4 0.7 -93.9 -3.697
09:25 1030 30.42 859 25.37 -13.8 7.1 73 -17.6 0.3 -93.9 -3.697
09:26 1030 30.42 859 25.37 -13.9 7 74 -17.5 0.4 -93.9 -3.697
09:27 1030 30.42 859 25.37 -13.9 7 75 -17.5 0.6 -93.8 -3.693
09:28 1030 30.42 859 25.37 -13.8 7.2 75 -17.3 0.9 -93.8 -3.693
09:29 1030 30.42 859 25.37 -13.6 7.5 76 -17.1 1.3 -93.8 -3.693
09:30 1030 30.42 859 25.37 -13.3 8 76 -16.7 2 -93.8 -3.693
09:31 1030 30.42 859 25.37 -13.1 8.4 74 -16.8 1.7 -93.8 -3.693
09:32 1030 30.42 859 25.37 -13 8.6 72 -17 1.4 -93.8 -3.693
09:33 1030 30.42 859 25.37 -13.1 8.4 72 -17.1 1.2 -93.8 -3.693
09:34 1030 30.42 859 25.37 -13.3 8 73 -17.2 1 -93.7 -3.689
09:35 1030 30.42 859 25.37 -13.5 7.8 73 -17.3 0.9 -93.7 -3.689
09:36 1030 30.42 859 25.37 -13.6 7.5 74 -17.3 0.8 -93.7 -3.689
09:37 1030 30.42 859 25.37 -13.7 7.4 75 -17.2 1 -93.7 -3.689
09:38 1030 30.42 859 25.37 -13.7 7.3 75 -17.3 0.8 -93.7 -3.689
09:39 1030 30.42 859 25.37 -13.8 7.1 76 -17.3 0.9 -93.7 -3.689
09:40 1030 30.42 859 25.37 -13.8 7.1 76 -17.2 1.1 -93.7 -3.689
09:41 1030 30.42 859 25.37 -13.8 7.2 77 -17 1.5 -93.7 -3.689
09:42 1030 30.42 859 25.37 -13.7 7.4 76 -17 1.4 -93.7 -3.689
09:43 1030 30.42 859 25.37 -13.7 7.4 76 -17 1.5 -93.7 -3.689
09:44 1030 30.42 859 25.37 -13.5 7.6 79 -16.5 2.3 -93.7 -3.689
09:45 1030 30.42 859 25.37 -13.4 7.9 80 -16.2 2.9 -93.7 -3.689
09:46 1030 30.42 859 25.37 -13.2 8.3 80 -15.9 3.3 -93.7 -3.689
09:47 1030 30.42 859 25.37 -12.9 8.9 79 -15.7 3.7 -93.7 -3.689
09:48 1030 30.42 859 25.37 -12.6 9.3 78 -15.6 3.8 -93.7 -3.689
09:49 1030 30.42 859 25.37 -12.5 9.5 77 -15.7 3.8 -93.7 -3.689
09:50 1030 30.42 859 25.37 -12.5 9.5 76 -15.8 3.5 -93.7 -3.689
09:51 1030 30.42 859 25.37 -12.5 9.4 76 -16 3.2 -93.7 -3.689
09:52 1030 30.42 859 25.37 -12.6 9.3 76 -16 3.1 -93.6 -3.685
09:53 1030 30.42 859 25.37 -12.6 9.3 76 -16 3.3 -93.6 -3.685
09:54 1030 30.42 859 25.37 -12.7 9.2 77 -15.9 3.3 -93.6 -3.685
09:55 1030 30.42 859 25.37 -12.7 9.2 76 -16 3.2 -93.6 -3.685
09:56 1030 30.42 859 25.37 -12.6 9.3 77 -15.9 3.4 -93.6 -3.685
09:57 1030 30.42 859 25.37 -12.5 9.5 77 -15.8 3.6 -93.6 -3.685
09:58 1030 30.42 859 25.37 -12.4 9.7 76 -15.8 3.6 -93.6 -3.685
09:59 1030 30.42 859 25.37 -12.4 9.8 76 -15.8 3.6 -93.6 -3.685
10:00 1030 30.42 859 25.37 -12.4 9.8 76 -15.8 3.5 -93.6 -3.685
10:01 1030 30.42 859 25.37 -12.4 9.7 75 -15.9 3.4 -93.6 -3.685
10:02 1030 30.42 859 25.37 -12.4 9.7 76 -15.8 3.5 -93.6 -3.685
10:03 1030 30.42 859 25.37 -12.3 9.9 76 -15.7 3.7 -93.6 -3.685
10:04 1030 30.42 859 25.37 -12.1 10.1 75 -15.7 3.8 -93.6 -3.685
10:05 1030 30.42 859 25.37 -12.1 10.3 75 -15.6 3.9 -93.6 -3.685
10:06 1030 30.42 859 25.37 -11.9 10.6 76 -15.3 4.4 -93.6 -3.685
10:07 1030 30.42 859 25.37 -11.7 11 76 -15.1 4.8 -93.6 -3.685
10:08 1030 30.42 859 25.37 -11.4 11.6 74 -15.1 4.8 -93.5 -3.681
10:09 1030 30.42 859 25.37 -11 12.3 74 -14.7 5.6 -93.5 -3.681
10:10 1030 30.42 859 25.37 -10.5 13 73 -14.6 5.8 -93.5 -3.681
10:11 1030 30.42 859 25.37 -10.1 13.8 70 -14.5 5.9 -93.4 -3.677
10:12 1030 30.42 859 25.37 -9.7 14.6 69 -14.3 6.2 -93.4 -3.677
10:13 1030 30.42 859 25.37 -9.1 15.7 67 -14.1 6.5 -93.4 -3.677
10:14 1030 30.42 859 25.37 -8.5 16.7 64 -14.1 6.6 -93.4 -3.677
10:15 1030 30.42 859 25.37 -8.1 17.4 62 -14.1 6.6 -93.4 -3.677
10:16 1030 30.42 859 25.37 -8.1 17.5 63 -14 6.8 -93.4 -3.677
10:17 1030 30.42 859 25.37 -8.4 17 64 -14 6.8 -93.3 -3.673
10:18 1030 30.42 859 25.37 -8.8 16.2 64 -14.4 6.1 -93.3 -3.673
10:19 1030 30.42 859 25.37 -9.2 15.4 66 -14.4 6.1 -93.3 -3.673
10:20 1030 30.42 859 25.37 -9.5 14.9 68 -14.4 6 -93.3 -3.673
10:21 1030 30.42 859 25.37 -9.7 14.5 68 -14.5 5.9 -93.3 -3.673
10:22 1030 30.42 859 25.37 -9.9 14.2 70 -14.4 6 -93.3 -3.673
10:23 1030 30.42 859 25.37 -10 13.9 69 -14.6 5.7 -93.3 -3.673
10:24 1030 30.42 859 25.37 -10 14 70 -14.5 5.9 -93.3 -3.673
10:25 1030 30.42 859 25.37 -10 14 70 -14.5 6 -93.3 -3.673
10:26 1030 30.42 859 25.37 -10 14 69 -14.6 5.7 -93.3 -3.673
10:27 1030 30.42 859 25.37 -10.1 13.8 70 -14.6 5.8 -93.3 -3.673
10:28 1030 30.42 859 25.37 -10.2 13.7 72 -14.3 6.3 -93.3 -3.673
10:29 1030 30.42 859 25.37 -10.2 13.7 71 -14.5 5.9 -93.3 -3.673
10:30 1030 30.42 859 25.37 -10.3 13.6 72 -14.3 6.2 -93.3 -3.673
10:31 1030 30.42 859 25.37 -10.3 13.5 72 -14.4 6.2 -93.3 -3.673
10:32 1030 30.42 859 25.37 -10.3 13.5 72 -14.3 6.2 -93.3 -3.673
10:33 1030 30.42 859 25.37 -10.4 13.4 72 -14.5 5.8 -93.3 -3.673
10:34 1030 30.42 859 25.37 -10.4 13.3 73 -14.4 6.2 -93.4 -3.677
10:35 1030 30.42 859 25.37 -10.4 13.3 73 -14.3 6.2 -93.4 -3.677
10:36 1030 30.42 859 25.37 -10.4 13.3 71 -14.7 5.6 -93.4 -3.677
10:37 1030 30.42 859 25.37 -10.3 13.5 72 -14.5 6 -93.4 -3.677
10:38 1030 30.42 859 25.37 -10.2 13.7 71 -14.4 6 -93.4 -3.677
10:39 1030 30.42 859 25.37 -10.1 13.9 70 -14.5 5.8 -93.4 -3.677
10:40 1030 30.42 859 25.37 -10 14 70 -14.5 5.8 -93.4 -3.677
10:41 1030 30.42 859 25.37 -10 14 71 -14.2 6.4 -93.4 -3.677
10:42 1030 30.42 859 25.37 -10 14 71 -14.4 6.1 -93.4 -3.677
10:43 1030 30.42 859 25.37 -10 14 72 -14.2 6.5 -93.4 -3.677
10:44 1030 30.42 859 25.37 -10.1 13.9 71 -14.4 6 -93.3 -3.673
10:45 1030 30.42 859 25.37 -10.1 13.8 71 -14.4 6 -93.3 -3.673
10:46 1030 30.42 859 25.37 -10.1 13.9 72 -14.2 6.5 -93.3 -3.673
10:47 1030 30.42 859 25.37 -10.1 13.9 71 -14.3 6.2 -93.3 -3.673
10:48 1030 30.42 859 25.37 -10.1 13.7 71 -14.5 5.9 -93.3 -3.673
10:49 1030 30.42 859 25.37 -10.3 13.5 72 -14.5 6 -93.3 -3.673
10:50 1030 30.42 859 25.37 -10.4 13.3 72 -14.5 5.9 -93.3 -3.673
10:51 1030 30.42 859 25.37 -10.5 13.1 73 -14.4 6.1 -93.3 -3.673
10:52 1030 30.42 859 25.37 -10.5 13.1 74 -14.4 6.1 -93.3 -3.673
10:53 1030 30.42 859 25.37 -10.5 13.1 74 -14.3 6.2 -93.3 -3.673
10:54 1030 30.42 859 25.37 -10.6 13 74 -14.4 6.1 -93.3 -3.673
10:55 1030 30.42 859 25.37 -10.6 12.9 74 -14.5 6 -93.3 -3.673
10:56 1030 30.42 859 25.37 -10.6 13 74 -14.4 6.1 -93.3 -3.673
10:57 1030 30.42 859 25.37 -10.5 13.1 74 -14.4 6.1 -93.4 -3.677
10:58 1030 30.42 859 25.37 -10.4 13.3 73 -14.3 6.2 -93.4 -3.677
10:59 1030 30.42 859 25.37 -10.3 13.5 72 -14.4 6 -93.4 -3.677
11:00 1030 30.42 859 25.37 -10.3 13.4 72 -14.5 6 -93.3 -3.673
11:01 1030 30.42 859 25.37 -10.3 13.6 71 -14.5 5.9 -93.3 -3.673
11:02 1030 30.42 859 25.37 -10.2 13.7 71 -14.5 6 -93.3 -3.673
11:03 1030 30.42 859 25.37 -10.1 13.8 70 -14.6 5.7 -93.3 -3.673
11:04 1030 30.42 859 25.37 -10 14 70 -14.5 6 -93.3 -3.673
11:05 1030 30.42 859 25.37 -10 14.1 71 -14.3 6.3 -93.3 -3.673
11:06 1030 30.42 859 25.37 -9.9 14.2 71 -14.1 6.6 -93.3 -3.673
11:07 1030 30.42 859 25.37 -9.8 14.5 70 -14.2 6.4 -93.3 -3.673
11:08 1029 30.39 859 25.37 -9.7 14.5 70 -14.2 6.4 -93.3 -3.673
11:09 1030 30.42 859 25.37 -9.7 14.6 71 -14 6.7 -93.3 -3.673
11:10 1029 30.39 859 25.37 -9.7 14.6 70 -14.2 6.5 -93.3 -3.673
11:11 1029 30.39 859 25.37 -9.6 14.7 71 -14 6.9 -93.3 -3.673
11:12 1029 30.39 859 25.37 -9.6 14.8 71 -13.9 7.1 -93.3 -3.673
11:13 1029 30.39 859 25.37 -9.5 14.9 70 -14 6.8 -93.3 -3.673
11:14 1029 30.39 859 25.37 -9.4 15.1 68 -14.2 6.4 -93.3 -3.673
11:15 1029 30.39 859 25.37 -9.4 15.1 68 -14.3 6.3 -93.3 -3.673
11:16 1029 30.39 859 25.37 -9.4 15.1 70 -13.9 7 -93.3 -3.673
11:17 1029 30.39 859 25.37 -9.3 15.2 69 -14 6.9 -93.3 -3.673
11:18 1029 30.39 859 25.37 -9.2 15.5 69 -13.9 6.9 -93.3 -3.673
11:19 1029 30.39 859 25.37 -9.1 15.7 69 -13.8 7.2 -93.3 -3.673
11:20 1029 30.39 859 25.37 -8.9 16 68 -13.8 7.1 -93.3 -3.673
11:21 1029 30.39 859 25.37 -8.7 16.4 67 -13.7 7.3 -93.3 -3.673
11:22 1029 30.39 859 25.37 -8.5 16.7 66 -13.8 7.2 -93.3 -3.673
11:23 1029 30.39 859 25.37 -8.3 17.2 64 -13.8 7.1 -93.3 -3.673
11:24 1029 30.39 859 25.37 -8.2 17.3 65 -13.7 7.4 -93.2 -3.669
11:25 1029 30.39 859 25.37 -8.1 17.4 65 -13.6 7.5 -93.2 -3.669
11:26 1029 30.39 859 25.37 -8 17.5 65 -13.5 7.7 -93.2 -3.669
11:27 1029 30.39 859 25.37 -7.8 17.9 64 -13.5 7.7 -93.2 -3.669
11:28 1029 30.39 858 25.34 -7.6 18.4 62 -13.7 7.4 -93.2 -3.669
11:29 1029 30.39 858 25.34 -7.3 18.8 62 -13.4 7.8 -93.2 -3.669
11:30 1029 30.39 858 25.34 -7.3 19 62 -13.4 7.8 -93.2 -3.669
11:31 1029 30.39 858 25.34 -7.5 18.5 62 -13.6 7.6 -93.2 -3.669
11:32 1029 30.39 858 25.34 -7.7 18.1 64 -13.4 7.9 -93.2 -3.669
11:33 1029 30.39 858 25.34 -8 17.7 65 -13.5 7.7 -93.2 -3.669
11:34 1029 30.39 858 25.34 -8.1 17.4 66 -13.4 8 -93.2 -3.669
11:35 1029 30.39 858 25.34 -8.1 17.4 66 -13.4 7.8 -93.2 -3.669
11:36 1029 30.39 858 25.34 -8.2 17.2 65 -13.7 7.3 -93.1 -3.665
11:37 1029 30.39 858 25.34 -8.3 17 66 -13.6 7.5 -93.1 -3.665
11:38 1029 30.39 858 25.34 -8.4 16.8 68 -13.4 7.9 -93.1 -3.665
11:39 1029 30.39 858 25.34 -8.5 16.8 67 -13.5 7.7 -93.1 -3.665
11:40 1029 30.39 858 25.34 -8.4 16.8 68 -13.3 8 -93.1 -3.665
11:41 1029 30.39 858 25.34 -8.4 16.9 68 -13.3 8.1 -93.1 -3.665
11:42 1029 30.39 858 25.34 -8.3 17.1 68 -13.3 8.1 -93.1 -3.665
11:43 1029 30.39 858 25.34 -8.2 17.3 67 -13.3 8.1 -93.1 -3.665
11:44 1029 30.39 858 25.34 -8 17.6 65 -13.5 7.7 -93.1 -3.665
11:45 1029 30.39 858 25.34 -8 17.7 65 -13.4 7.8 -93.1 -3.665
11:46 1029 30.39 858 25.34 -7.9 17.8 65 -13.4 8 -93.1 -3.665
11:47 1029 30.39 858 25.34 -7.7 18.2 64 -13.4 7.9 -93.1 -3.665
11:48 1029 30.39 858 25.34 -7.3 18.9 62 -13.3 8 -93.1 -3.665
11:49 1029 30.39 858 25.34 -6.9 19.7 60 -13.4 7.8 -93.1 -3.665
11:50 1029 30.39 858 25.34 -6.5 20.3 58 -13.4 7.9 -93 -3.661
11:51 1029 30.39 858 25.34 -6.1 21.1 57 -13.3 8 -93 -3.661
11:52 1029 30.39 858 25.34 -5.7 21.8 55 -13.4 7.8 -93 -3.661
11:53 1029 30.39 858 25.34 -5.2 22.6 53 -13.3 8 -93 -3.661
11:54 1029 30.39 858 25.34 -4.8 23.3 52 -13.3 8.1 -93 -3.661
11:55 1029 30.39 858 25.34 -4.5 23.8 51 -13.2 8.2 -93 -3.661
11:56 1029 30.39 858 25.34 -4.3 24.2 50 -13.4 7.9 -93 -3.661
11:57 1029 30.39 858 25.34 -4.1 24.7 49 -13.3 8 -93 -3.661
11:58 1029 30.39 858 25.34 -3.7 25.3 46 -13.8 7.2 -93 -3.661
11:59 1029 30.39 858 25.34 -3.4 25.9 46 -13.6 7.6 -93 -3.661
12:00 1029 30.39 858 25.34 -3.2 26.2 46 -13.3 8 -92.9 -3.657
12:01 1029 30.39 858 25.34 -3.4 25.9 47 -13.1 8.4 -92.9 -3.657
12:02 1029 30.39 858 25.34 -3.9 24.9 48 -13.3 8.1 -92.9 -3.657
12:03 1029 30.39 858 25.34 -4.8 23.4 51 -13.4 7.8 -92.9 -3.657
12:04 1029 30.39 858 25.34 -5.4 22.3 53 -13.4 7.8 -93 -3.661
12:05 1029 30.39 858 25.34 -5.8 21.6 54 -13.6 7.5 -93 -3.661
12:06 1029 30.39 858 25.34 -6 21.3 55 -13.6 7.5 -93 -3.661
12:07 1029 30.39 858 25.34 -6.1 21.1 56 -13.6 7.6 -93 -3.661
12:08 1029 30.39 858 25.34 -6.1 21 55 -13.7 7.4 -93 -3.661
12:09 1029 30.39 858 25.34 -6.1 21 57 -13.3 8 -93 -3.661
12:10 1029 30.39 858 25.34 -6 21.2 56 -13.3 8 -92.9 -3.657
12:11 1029 30.39 858 25.34 -5.8 21.6 56 -13.3 8 -92.9 -3.657
12:12 1029 30.39 858 25.34 -5.5 22.2 54 -13.3 8.1 -92.9 -3.657
12:13 1029 30.39 858 25.34 -5.1 22.8 53 -13.3 8.1 -92.9 -3.657
12:14 1029 30.39 858 25.34 -5 23.1 52 -13.3 8.1 -92.9 -3.657
12:15 1029 30.39 858 25.34 -5 23 52 -13.3 8 -92.9 -3.657
12:16 1029 30.39 858 25.34 -5 23 52 -13.4 7.8 -92.9 -3.657
12:17 1029 30.39 858 25.34 -4.8 23.4 52 -13.1 8.4 -92.8 -3.654
12:18 1029 30.39 858 25.34 -4.3 24.2 49 -13.5 7.7 -92.8 -3.654
12:19 1029 30.39 858 25.34 -4.1 24.6 49 -13.4 7.9 -92.8 -3.654
12:20 1029 30.39 858 25.34 -4.4 24.1 51 -13 8.5 -92.8 -3.654
12:21 1029 30.39 858 25.34 -4.9 23.2 52 -13.4 8 -92.8 -3.654
12:22 1029 30.39 858 25.34 -5.3 22.4 53 -13.6 7.6 -92.8 -3.654
12:23 1029 30.39 858 25.34 -5.6 21.9 55 -13.3 8 -92.8 -3.654
12:24 1029 30.39 858 25.34 -5.9 21.4 54 -13.7 7.3 -92.8 -3.654
12:25 1029 30.39 858 25.34 -5.9 21.3 55 -13.5 7.7 -92.8 -3.654
12:26 1029 30.39 858 25.34 -6 21.3 56 -13.4 7.8 -92.7 -3.65
12:27 1029 30.39 858 25.34 -6 21.2 56 -13.4 7.9 -92.7 -3.65
12:28 1029 30.39 858 25.34 -6.1 21 57 -13.3 8 -92.7 -3.65
12:29 1029 30.39 858 25.34 -6.1 21 57 -13.4 7.8 -92.7 -3.65
12:30 1029 30.39 858 25.34 -6.2 20.8 57 -13.5 7.7 -92.7 -3.65
12:31 1029 30.39 858 25.34 -6.4 20.5 57 -13.6 7.5 -92.7 -3.65
12:32 1029 30.39 858 25.34 -6.5 20.2 58 -13.4 7.8 -92.7 -3.65
12:33 1029 30.39 858 25.34 -6.6 20.2 59 -13.3 8 -92.7 -3.65
12:34 1029 30.39 858 25.34 -6.5 20.3 58 -13.6 7.5 -92.7 -3.65
12:35 1029 30.39 858 25.34 -6.5 20.4 59 -13.3 8.1 -92.7 -3.65
12:36 1029 30.39 858 25.34 -6.3 20.7 57 -13.5 7.8 -92.7 -3.65
12:37 1029 30.39 858 25.34 -6.2 20.8 57 -13.5 7.7 -92.7 -3.65
12:38 1029 30.39 858 25.34 -6.1 21 57 -13.2 8.2 -92.7 -3.65
12:39 1029 30.39 858 25.34 -6.1 21.1 58 -13.1 8.5 -92.7 -3.65
12:40 1029 30.39 858 25.34 -6 21.2 57 -13.3 8.1 -92.7 -3.65
12:41 1029 30.39 858 25.34 -6 21.1 58 -13 8.6 -92.7 -3.65
12:42 1029 30.39 858 25.34 -6 21.2 57 -13.1 8.4 -92.7 -3.65
12:43 1029 30.39 858 25.34 -5.9 21.3 58 -12.9 8.7 -92.7 -3.65
12:44 1029 30.39 858 25.34 -5.9 21.5 56 -13.3 8.1 -92.7 -3.65
12:45 1029 30.39 858 25.34 -5.8 21.6 56 -13.3 8 -92.7 -3.65
12:46 1029 30.39 858 25.34 -5.7 21.7 55 -13.4 7.9 -92.6 -3.646
12:47 1029 30.39 858 25.34 -5.7 21.7 56 -13.2 8.3 -92.6 -3.646
12:48 1029 30.39 858 25.34 -5.7 21.7 55 -13.4 7.9 -92.6 -3.646
12:49 1029 30.39 858 25.34 -5.7 21.7 55 -13.4 7.9 -92.6 -3.646
12:50 1029 30.39 858 25.34 -5.7 21.7 56 -13.2 8.2 -92.6 -3.646
12:51 1029 30.39 858 25.34 -5.6 22 55 -13.1 8.4 -92.6 -3.646
12:52 1029 30.39 858 25.34 -5.4 22.3 55 -12.9 8.7 -92.6 -3.646
12:53 1029 30.39 858 25.34 -5.2 22.6 55 -12.9 8.8 -92.5 -3.642
12:54 1029 30.39 858 25.34 -5.3 22.5 57 -12.6 9.4 -92.5 -3.642
12:55 1028 30.36 858 25.34 -5.3 22.5 57 -12.5 9.4 -92.5 -3.642
12:56 1028 30.36 858 25.34 -5.3 22.4 58 -12.3 9.9 -92.5 -3.642
12:57 1028 30.36 858 25.34 -5.3 22.5 58 -12.2 10 -92.5 -3.642
12:58 1028 30.36 858 25.34 -5.2 22.7 58 -12.2 10.1 -92.5 -3.642
12:59 1028 30.36 858 25.34 -5.5 22.2 56 -13 8.6 -92.5 -3.642
13:00 1028 30.36 858 25.34 -5.9 21.4 58 -12.9 8.8 -92.6 -3.646
13:01 1028 30.36 858 25.34 -6.1 21 59 -12.9 8.7 -92.6 -3.646
13:02 1028 30.36 857 25.31 -6.3 20.6 60 -12.9 8.8 -92.6 -3.646
13:03 1028 30.36 857 25.31 -6.4 20.4 61 -12.7 9.1 -92.6 -3.646
13:04 1028 30.36 857 25.31 -6.5 20.3 61 -12.8 8.9 -92.6 -3.646
13:05 1028 30.36 857 25.31 -6.6 20.2 60 -13 8.6 -92.6 -3.646
13:06 1028 30.36 857 25.31 -6.5 20.3 61 -12.8 8.9 -92.6 -3.646
13:07 1028 30.36 857 25.31 -6.4 20.4 61 -12.8 9 -92.5 -3.642
13:08 1028 30.36 857 25.31 -6.4 20.5 61 -12.7 9.1 -92.5 -3.642
13:09 1028 30.36 857 25.31 -6.3 20.6 58 -13.2 8.2 -92.5 -3.642
13:10 1028 30.36 857 25.31 -6.4 20.6 60 -12.8 9 -92.5 -3.642
13:11 1028 30.36 857 25.31 -6.3 20.6 60 -12.9 8.9 -92.5 -3.642
13:12 1028 30.36 857 25.31 -6.3 20.7 59 -13 8.6 -92.5 -3.642
13:13 1028 30.36 857 25.31 -6.2 20.9 58 -13.2 8.3 -92.5 -3.642
13:14 1028 30.36 857 25.31 -6.1 21.1 58 -13.1 8.4 -92.5 -3.642
13:15 1028 30.36 857 25.31 -6 21.3 58 -13 8.6 -92.5 -3.642
13:16 1028 30.36 857 25.31 -5.9 21.5 57 -13.1 8.4 -92.5 -3.642
13:17 1028 30.36 857 25.31 -5.8 21.6 56 -13.3 8 -92.5 -3.642
13:18 1028 30.36 857 25.31 -5.7 21.7 56 -13.2 8.3 -92.5 -3.642
13:19 1028 30.36 857 25.31 -5.6 21.9 57 -12.8 8.9 -92.5 -3.642
13:20 1028 30.36 857 25.31 -5.4 22.2 55 -13 8.5 -92.5 -3.642
13:21 1028 30.36 857 25.31 -5.4 22.2 57 -12.6 9.3 -92.5 -3.642
13:22 1028 30.36 857 25.31 -5.4 22.3 55 -13 8.6 -92.5 -3.642
13:23 1028 30.36 857 25.31 -5.4 22.2 57 -12.7 9.1 -92.5 -3.642
13:24 1028 30.36 857 25.31 -5.4 22.3 58 -12.5 9.6 -92.5 -3.642
13:25 1028 30.36 857 25.31 -5.3 22.5 57 -12.4 9.6 -92.4 -3.638
13:26 1028 30.36 857 25.31 -5.1 22.9 57 -12.2 10 -92.4 -3.638
13:27 1028 30.36 857 25.31 -4.9 23.2 56 -12.3 9.8 -92.4 -3.638
13:28 1028 30.36 857 25.31 -4.9 23.3 55 -12.5 9.5 -92.4 -3.638
13:29 1028 30.36 857 25.31 -4.9 23.1 58 -12 10.3 -92.4 -3.638
13:30 1028 30.36 857 25.31 -4.9 23.2 55 -12.5 9.5 -92.4 -3.638
13:31 1028 30.36 857 25.31 -4.9 23.2 57 -12.2 10 -92.4 -3.638
13:32 1028 30.36 857 25.31 -4.8 23.4 58 -11.8 10.7 -92.4 -3.638
13:33 1028 30.36 857 25.31 -4.8 23.3 57 -12.1 10.1 -92.4 -3.638
13:34 1028 30.36 857 25.31 -4.8 23.4 59 -11.7 11 -92.4 -3.638
13:35 1028 30.36 857 25.31 -4.8 23.3 59 -11.6 11.1 -92.4 -3.638
13:36 1028 30.36 857 25.31 -5 23 58 -12 10.4 -92.4 -3.638
13:37 1028 30.36 857 25.31 -5.4 22.3 59 -12.3 9.9 -92.4 -3.638
13:38 1028 30.36 857 25.31 -5.7 21.7 61 -12.1 10.2 -92.4 -3.638
13:39 1028 30.36 857 25.31 -5.9 21.4 62 -12.1 10.2 -92.4 -3.638
13:40 1028 30.36 857 25.31 -5.9 21.4 62 -12.1 10.3 -92.4 -3.638
13:41 1028 30.36 857 25.31 -5.8 21.6 61 -12.1 10.2 -92.4 -3.638
13:42 1028 30.36 857 25.31 -5.7 21.7 61 -12.2 10.1 -92.4 -3.638
13:43 1028 30.36 857 25.31 -5.6 21.9 61 -12 10.5 -92.4 -3.638
13:44 1028 30.36 857 25.31 -5.6 21.9 60 -12.2 10.1 -92.4 -3.638
13:45 1028 30.36 857 25.31 -5.7 21.7 61 -12.2 10.1 -92.4 -3.638
13:46 1028 30.36 857 25.31 -5.6 21.9 61 -12 10.3 -92.4 -3.638
13:47 1028 30.36 857 25.31 -5.5 22.2 60 -12 10.4 -92.4 -3.638
13:48 1028 30.36 857 25.31 -5.4 22.3 59 -12.2 10.1 -92.4 -3.638
13:49 1028 30.36 857 25.31 -5.4 22.2 59 -12.3 9.9 -92.4 -3.638
13:50 1028 30.36 857 25.31 -5.4 22.2 59 -12.2 10.1 -92.4 -3.638
13:51 1028 30.36 857 25.31 -5.4 22.3 59 -12.1 10.2 -92.4 -3.638
13:52 1028 30.36 857 25.31 -5.4 22.4 60 -12 10.4 -92.4 -3.638
13:53 1028 30.36 857 25.31 -5.4 22.3 60 -12.1 10.3 -92.4 -3.638
13:54 1028 30.36 857 25.31 -5.4 22.3 60 -12.1 10.3 -92.4 -3.638
13:55 1028 30.36 857 25.31 -5.5 22.2 60 -12.1 10.3 -92.4 -3.638
13:56 1028 30.36 857 25.31 -5.5 22.2 59 -12.2 10 -92.4 -3.638
13:57 1028 30.36 857 25.31 -5.5 22 61 -12 10.4 -92.4 -3.638
13:58 1028 30.36 857 25.31 -5.6 22 61 -12 10.4 -92.4 -3.638
13:59 1028 30.36 857 25.31 -5.7 21.8 63 -11.7 10.9 -92.4 -3.638
14:00 1028 30.36 857 25.31 -5.8 21.6 62 -12 10.3 -92.3 -3.634
14:01 1028 30.36 857 25.31 -5.8 21.5 62 -12 10.5 -92.3 -3.634
14:02 1028 30.36 857 25.31 -5.8 21.5 62 -12 10.3 -92.3 -3.634
14:03 1028 30.36 857 25.31 -5.9 21.5 62 -12.1 10.2 -92.3 -3.634
14:04 1028 30.36 857 25.31 -5.8 21.5 61 -12.2 10 -92.3 -3.634
14:05 1028 30.36 857 25.31 -5.9 21.5 63 -11.9 10.6 -92.3 -3.634
14:06 1028 30.36 857 25.31 -5.9 21.3 63 -11.8 10.8 -92.3 -3.634
14:07 1028 30.36 857 25.31 -5.9 21.4 64 -11.7 10.9 -92.3 -3.634
14:08 1028 30.36 857 25.31 -5.9 21.3 64 -11.8 10.8 -92.3 -3.634
14:09 1028 30.36 857 25.31 -5.9 21.3 65 -11.5 11.2 -92.3 -3.634
14:10 1028 30.36 857 25.31 -6 21.2 67 -11.3 11.7 -92.3 -3.634
14:11 1028 30.36 857 25.31 -6.1 21 66 -11.5 11.3 -92.3 -3.634
14:12 1028 30.36 857 25.31 -6.2 20.8 67 -11.3 11.6 -92.3 -3.634
14:13 1028 30.36 857 25.31 -6.3 20.6 68 -11.3 11.6 -92.3 -3.634
14:14 1028 30.36 857 25.31 -6.5 20.4 69 -11.3 11.7 -92.3 -3.634
14:15 1028 30.36 857 25.31 -6.4 20.4 69 -11.3 11.7 -92.3 -3.634
14:16 1028 30.36 857 25.31 -6.5 20.3 69 -11.2 11.8 -92.3 -3.634
14:17 1028 30.36 857 25.31 -6.5 20.3 69 -11.3 11.6 -92.2 -3.63
14:18 1028 30.36 857 25.31 -6.5 20.3 69 -11.3 11.7 -92.2 -3.63
14:19 1028 30.36 857 25.31 -6.5 20.3 68 -11.4 11.5 -92.2 -3.63
14:20 1028 30.36 857 25.31 -6.5 20.4 68 -11.4 11.5 -92.2 -3.63
14:21 1028 30.36 857 25.31 -6.5 20.3 68 -11.4 11.5 -92.2 -3.63
14:22 1028 30.36 857 25.31 -6.5 20.3 69 -11.2 11.8 -92.2 -3.63
14:23 1028 30.36 857 25.31 -6.4 20.4 69 -11.2 11.8 -92.2 -3.63
14:24 1028 30.36 857 25.31 -6.4 20.4 69 -11.2 11.8 -92.2 -3.63
14:25 1028 30.36 857 25.31 -6.4 20.5 69 -11.1 11.9 -92.2 -3.63
14:26 1028 30.36 857 25.31 -6.5 20.4 69 -11.2 11.9 -92.2 -3.63
14:27 1028 30.36 857 25.31 -6.5 20.3 69 -11.3 11.7 -92.2 -3.63
14:28 1028 30.36 857 25.31 -6.5 20.3 69 -11.2 11.8 -92.2 -3.63
14:29 1028 30.36 857 25.31 -6.5 20.3 69 -11.4 11.6 -92.2 -3.63
14:30 1028 30.36 857 25.31 -6.5 20.2 68 -11.5 11.4 -92.2 -3.63
14:31 1028 30.36 857 25.31 -6.5 20.2 69 -11.4 11.6 -92.2 -3.63
14:32 1028 30.36 857 25.31 -6.6 20.2 69 -11.4 11.5 -92.2 -3.63
14:33 1028 30.36 857 25.31 -6.6 20.1 69 -11.3 11.6 -92.2 -3.63
14:34 1028 30.36 857 25.31 -6.6 20.1 70 -11.2 11.9 -92.2 -3.63
14:35 1028 30.36 857 25.31 -6.6 20.1 70 -11.2 11.9 -92.2 -3.63
14:36 1028 30.36 857 25.31 -6.6 20.1 70 -11.2 11.9 -92.2 -3.63
14:37 1028 30.36 857 25.31 -6.7 20 70 -11.2 11.8 -92.2 -3.63
14:38 1028 30.36 857 25.31 -6.8 19.8 70 -11.3 11.6 -92.2 -3.63
14:39 1028 30.36 857 25.31 -6.8 19.7 71 -11.3 11.7 -92.2 -3.63
14:40 1028 30.36 857 25.31 -6.9 19.6 71 -11.3 11.7 -92.2 -3.63
14:41 1028 30.36 857 25.31 -7 19.4 72 -11.3 11.6 -92.2 -3.63
14:42 1028 30.36 857 25.31 -7.2 19.1 72 -11.4 11.4 -92.2 -3.63
14:43 1028 30.36 857 25.31 -7.3 18.9 72 -11.5 11.4 -92.2 -3.63
14:44 1028 30.36 857 25.31 -7.3 18.9 73 -11.4 11.5 -92.2 -3.63
14:45 1028 30.36 857 25.31 -7.2 19.1 72 -11.4 11.4 -92.2 -3.63
14:46 1028 30.36 857 25.31 -7.2 19 72 -11.4 11.4 -92.2 -3.63
14:47 1028 30.36 857 25.31 -7.2 19.1 72 -11.4 11.5 -92.2 -3.63
14:48 1028 30.36 857 25.31 -7.1 19.1 70 -11.7 11 -92.1 -3.626
14:49 1028 30.36 857 25.31 -7.1 19.3 70 -11.7 11 -92.1 -3.626
14:50 1028 30.36 857 25.31 -7 19.3 70 -11.7 11 -92.2 -3.63
14:51 1028 30.36 857 25.31 -7 19.4 70 -11.7 11 -92.2 -3.63
14:52 1028 30.36 857 25.31 -7 19.4 69 -11.7 11 -92.2 -3.63
14:53 1028 30.36 857 25.31 -6.9 19.5 69 -11.6 11.1 -92.1 -3.626
14:54 1028 30.36 857 25.31 -6.9 19.6 69 -11.7 11 -92.1 -3.626
14:55 1028 30.36 857 25.31 -6.8 19.8 69 -11.6 11.2 -92.2 -3.63
14:56 1028 30.36 857 25.31 -6.7 19.9 68 -11.6 11.1 -92.2 -3.63
14:57 1028 30.36 857 25.31 -6.7 20 68 -11.6 11.1 -92.2 -3.63
14:58 1028 30.36 857 25.31 -6.7 20 68 -11.6 11.1 -92.2 -3.63
14:59 1028 30.36 857 25.31 -6.7 20 68 -11.6 11.2 -92.2 -3.63
15:00 1028 30.36 857 25.31 -6.7 19.9 69 -11.6 11.1 -92.2 -3.63
15:01 1028 30.36 857 25.31 -6.9 19.7 69 -11.6 11.2 -92.2 -3.63
15:02 1028 30.36 857 25.31 -6.9 19.6 70 -11.6 11.2 -92.2 -3.63
15:03 1028 30.36 857 25.31 -6.9 19.5 70 -11.5 11.3 -92.2 -3.63
15:04 1028 30.36 857 25.31 -6.9 19.5 69 -11.6 11.1 -92.2 -3.63
15:05 1028 30.36 857 25.31 -7 19.5 70 -11.6 11.2 -92.2 -3.63
15:06 1028 30.36 857 25.31 -7 19.4 70 -11.5 11.2 -92.2 -3.63
15:07 1028 30.36 857 25.31 -7 19.4 70 -11.5 11.2 -92.2 -3.63
15:08 1028 30.36 857 25.31 -7 19.5 71 -11.4 11.5 -92.1 -3.626
15:09 1028 30.36 857 25.31 -7 19.5 70 -11.5 11.3 -92.2 -3.63
15:10 1028 30.36 857 25.31 -7 19.3 71 -11.5 11.3 -92.2 -3.63
15:11 1028 30.36 857 25.31 -7.1 19.2 72 -11.4 11.4 -92.2 -3.63
15:12 1028 30.36 857 25.31 -7.1 19.2 71 -11.4 11.4 -92.2 -3.63
15:13 1028 30.36 857 25.31 -7.1 19.2 72 -11.4 11.5 -92.2 -3.63
15:14 1028 30.36 857 25.31 -7.1 19.3 71 -11.4 11.5 -92.2 -3.63
15:15 1028 30.36 857 25.31 -7 19.4 71 -11.4 11.5 -92.2 -3.63
15:16 1028 30.36 857 25.31 -7 19.4 71 -11.5 11.3 -92.2 -3.63
15:17 1028 30.36 857 25.31 -7.1 19.3 71 -11.4 11.4 -92.2 -3.63
15:18 1028 30.36 857 25.31 -7.1 19.3 71 -11.4 11.4 -92.2 -3.63
15:19 1028 30.36 857 25.31 -7.1 19.2 71 -11.4 11.4 -92.2 -3.63
15:20 1028 30.36 857 25.31 -7 19.3 72 -11.3 11.6 -92.2 -3.63
15:21 1028 30.36 857 25.31 -7 19.5 72 -11.2 11.9 -92.1 -3.626
15:22 1028 30.36 857 25.31 -6.8 19.8 72 -11.1 12.1 -92.1 -3.626
15:23 1028 30.36 857 25.31 -6.6 20.2 70 -11.2 11.9 -92.1 -3.626
15:24 1028 30.36 857 25.31 -6.5 20.3 69 -11.3 11.6 -92.1 -3.626
15:25 1028 30.36 857 25.31 -6.6 20.2 67 -11.7 10.9 -92.1 -3.626
15:26 1028 30.36 857 25.31 -6.9 19.6 66 -12.2 10 -92.1 -3.626
15:27 1028 30.36 857 25.31 -7.3 18.9 67 -12.4 9.6 -92.1 -3.626
15:28 1028 30.36 857 25.31 -7.7 18.2 68 -12.5 9.4 -92.2 -3.63
15:29 1028 30.36 857 25.31 -7.9 17.8 69 -12.5 9.4 -92.2 -3.63
15:30 1028 30.36 857 25.31 -8 17.6 71 -12.4 9.6 -92.2 -3.63
15:31 1028 30.36 857 25.31 -7.9 17.8 71 -12.2 10 -92.2 -3.63
15:32 1028 30.36 857 25.31 -7.7 18.1 71 -12.2 10.1 -92.2 -3.63
15:33 1028 30.36 857 25.31 -7.5 18.4 70 -12.1 10.2 -92.2 -3.63
15:34 1028 30.36 857 25.31 -7.3 18.8 69 -12 10.4 -92.2 -3.63
15:35 1028 30.36 857 25.31 -7.2 19.1 69 -12 10.4 -92.2 -3.63
15:36 1028 30.36 857 25.31 -7 19.4 68 -11.9 10.6 -92.2 -3.63
15:37 1028 30.36 857 25.31 -6.8 19.7 68 -11.8 10.7 -92.2 -3.63
15:38 1028 30.36 857 25.31 -6.7 19.9 68 -11.7 10.9 -92.2 -3.63
15:39 1028 30.36 857 25.31 -6.7 19.9 68 -11.7 11 -92.2 -3.63
15:40 1028 30.36 857 25.31 -6.8 19.7 69 -11.6 11.1 -92.2 -3.63
15:41 1028 30.36 857 25.31 -6.9 19.5 69 -11.7 11 -92.2 -3.63
15:42 1028 30.36 857 25.31 -7.1 19.3 70 -11.7 10.9 -92.2 -3.63
15:43 1028 30.36 857 25.31 -7.2 19.1 70 -11.7 10.9 -92.2 -3.63
15:44 1028 30.36 857 25.31 -7.2 19 70 -11.8 10.8 -92.2 -3.63
15:45 1028 30.36 857 25.31 -7.3 18.9 70 -11.8 10.8 -92.2 -3.63
15:46 1028 30.36 857 25.31 -7.3 18.9 71 -11.8 10.8 -92.2 -3.63
15:47 1028 30.36 857 25.31 -7.2 19 70 -11.9 10.7 -92.2 -3.63
15:48 1028 30.36 857 25.31 -7.2 19.1 69 -11.9 10.6 -92.2 -3.63
15:49 1028 30.36 857 25.31 -7.1 19.1 69 -11.9 10.5 -92.2 -3.63
15:50 1028 30.36 857 25.31 -7.2 19.1 70 -11.8 10.7 -92.2 -3.63
15:51 1028 30.36 857 25.31 -7.2 19 70 -11.9 10.6 -92.2 -3.63
15:52 1028 30.36 857 25.31 -7.3 19 69 -11.9 10.5 -92.2 -3.63
15:53 1028 30.36 857 25.31 -7.2 19 70 -11.8 10.7 -92.2 -3.63
15:54 1028 30.36 857 25.31 -7.3 18.9 70 -11.8 10.7 -92.2 -3.63
15:55 1028 30.36 857 25.31 -7.5 18.6 71 -11.9 10.7 -92.2 -3.63
15:56 1028 30.36 857 25.31 -7.5 18.4 71 -11.9 10.6 -92.2 -3.63
15:57 1028 30.36 857 25.31 -7.7 18.2 72 -12 10.5 -92.2 -3.63
15:58 1028 30.36 857 25.31 -7.8 17.9 72 -12 10.3 -92.2 -3.63
15:59 1028 30.36 857 25.31 -8 17.6 72 -12.2 10.1 -92.2 -3.63
16:00 1028 30.36 857 25.31 -8.2 17.2 72 -12.5 9.6 -92.2 -3.63
16:01 1028 30.36 857 25.31 -8.5 16.8 73 -12.5 9.4 -92.2 -3.63
16:02 1028 30.36 857 25.31 -8.7 16.3 73 -12.8 9 -92.2 -3.63
16:03 1028 30.36 857 25.31 -9 15.9 72 -13.1 8.4 -92.2 -3.63
16:04 1028 30.36 857 25.31 -9.2 15.4 73 -13.1 8.3 -92.2 -3.63
16:05 1028 30.36 857 25.31 -9.4 15 75 -13.1 8.4 -92.2 -3.63
16:06 1028 30.36 857 25.31 -9.6 14.8 77 -12.9 8.7 -92.2 -3.63
16:07 1028 30.36 857 25.31 -9.6 14.7 76 -13.1 8.5 -92.2 -3.63
16:08 1028 30.36 857 25.31 -9.7 14.5 76 -13.2 8.3 -92.2 -3.63
16:09 1028 30.36 857 25.31 -9.8 14.3 77 -13.2 8.2 -92.2 -3.63
16:10 1028 30.36 857 25.31 -9.9 14.2 76 -13.3 8 -92.2 -3.63
16:11 1028 30.36 857 25.31 -10 13.9 76 -13.5 7.8 -92.2 -3.63
16:12 1028 30.36 857 25.31 -10.1 13.7 76 -13.7 7.4 -92.2 -3.63
16:13 1028 30.36 857 25.31 -10.4 13.4 75 -14 6.8 -92.2 -3.63
16:14 1028 30.36 857 25.31 -10.5 13.1 78 -13.6 7.6 -92.2 -3.63
16:15 1028 30.36 857 25.31 -10.4 13.2 80 -13.3 8.1 -92.2 -3.63
16:16 1028 30.36 857 25.31 -10.3 13.4 80 -13.1 8.4 -92.2 -3.63
16:17 1028 30.36 857 25.31 -10.2 13.7 78 -13.3 8.1 -92.2 -3.63
16:18 1028 30.36 857 25.31 -10.1 13.8 76 -13.6 7.6 -92.2 -3.63
16:19 1028 30.36 857 25.31 -10.2 13.7 76 -13.6 7.6 -92.2 -3.63
16:20 1028 30.36 857 25.31 -10.2 13.6 77 -13.5 7.6 -92.2 -3.63
16:21 1028 30.36 857 25.31 -10.2 13.7 77 -13.4 7.9 -92.2 -3.63
16:22 1028 30.36 857 25.31 -10.1 13.9 76 -13.5 7.7 -92.2 -3.63
16:23 1028 30.36 857 25.31 -10 14 75 -13.7 7.4 -92.2 -3.63
16:24 1028 30.36 857 25.31 -10 14 77 -13.4 7.9 -92.2 -3.63
16:25 1028 30.36 857 25.31 -10.1 13.8 73 -14.1 6.7 -92.2 -3.63
16:26 1028 30.36 857 25.31 -10.3 13.4 71 -14.6 5.8 -92.2 -3.63
16:27 1028 30.36 857 25.31 -10.6 13 70 -15 5 -92.3 -3.634
16:28 1028 30.36 857 25.31 -11.1 12 71 -15.4 4.2 -92.3 -3.634
16:29 1028 30.36 857 25.31 -11.6 11.1 74 -15.4 4.3 -92.3 -3.634
16:30 1028 30.36 857 25.31 -12 10.4 75 -15.7 3.8 -92.3 -3.634
16:31 1028 30.36 857 25.31 -12.3 9.8 77 -15.5 4.1 -92.4 -3.638
16:32 1028 30.36 857 25.31 -12.4 9.7 79 -15.3 4.5 -92.4 -3.638
16:33 1028 30.36 857 25.31 -12.4 9.6 77 -15.6 3.8 -92.4 -3.638
16:34 1028 30.36 857 25.31 -12.6 9.4 78 -15.6 3.9 -92.4 -3.638
16:35 1028 30.36 857 25.31 -12.7 9.1 78 -15.8 3.5 -92.4 -3.638
16:36 1028 30.36 857 25.31 -12.9 8.7 78 -16 3.3 -92.4 -3.638
16:37 1028 30.36 857 25.31 -13.1 8.5 82 -15.6 3.9 -92.4 -3.638
16:38 1028 30.36 857 25.31 -12.7 9.1 87 -14.4 6 -92.4 -3.638
16:39 1028 30.36 857 25.31 -12.2 10 87 -13.9 6.9 -92.4 -3.638
16:40 1028 30.36 857 25.31 -12 10.5 79 -14.9 5.1 -92.4 -3.638
16:41 1028 30.36 857 25.31 -12.4 9.7 72 -16.4 2.5 -92.4 -3.638
16:42 1028 30.36 857 25.31 -13 8.6 73 -16.8 1.7 -92.4 -3.638
16:43 1028 30.36 857 25.31 -13.5 7.7 75 -17.1 1.2 -92.4 -3.638
16:44 1028 30.36 857 25.31 -13.9 7 76 -17.2 1 -92.5 -3.642
16:45 1028 30.36 857 25.31 -14.1 6.6 76 -17.4 0.7 -92.5 -3.642
16:46 1028 30.36 857 25.31 -14.4 6 76 -17.8 0 -92.5 -3.642
16:47 1028 30.36 857 25.31 -14.7 5.6 79 -17.5 0.4 -92.5 -3.642
16:48 1028 30.36 857 25.31 -14.5 5.8 82 -17 1.5 -92.5 -3.642
16:49 1028 30.36 857 25.31 -14.3 6.2 80 -17.1 1.2 -92.6 -3.646
16:50 1028 30.36 857 25.31 -14.3 6.3 78 -17.4 0.7 -92.6 -3.646
16:51 1028 30.36 857 25.31 -14.2 6.4 81 -16.9 1.6 -92.6 -3.646
16:52 1028 30.36 857 25.31 -14.2 6.5 75 -17.8 0 -92.6 -3.646
16:53 1028 30.36 857 25.31 -14.4 6 75 -18 -0.4 -92.6 -3.646
16:54 1028 30.36 857 25.31 -14.6 5.8 77 -17.7 0.2 -92.6 -3.646
16:55 1028 30.36 857 25.31 -14.3 6.4 80 -16.9 1.5 -92.7 -3.65
16:56 1028 30.36 857 25.31 -13.7 7.3 78 -16.7 2 -92.7 -3.65
16:57 1028 30.36 857 25.31 -13.2 8.2 76 -16.5 2.3 -92.7 -3.65
16:58 1028 30.36 857 25.31 -12.9 8.7 71 -17.1 1.2 -92.7 -3.65
16:59 1027 30.33 857 25.31 -13.2 8.2 67 -18.2 -0.8 -92.7 -3.65
17:00 1027 30.33 857 25.31 -14 6.9 69 -18.6 -1.4 -92.7 -3.65
17:01 1027 30.33 857 25.31 -14.5 5.8 71 -18.7 -1.6 -92.8 -3.654
17:02 1028 30.36 857 25.31 -14.9 5.2 75 -18.4 -1.2 -92.8 -3.654
17:03 1027 30.33 857 25.31 -15 4.9 77 -18.2 -0.8 -92.8 -3.654
17:04 1027 30.33 857 25.31 -15.2 4.7 77 -18.4 -1.1 -92.8 -3.654
17:05 1027 30.33 857 25.31 -15.3 4.4 76 -18.7 -1.6 -92.8 -3.654
17:06 1027 30.33 857 25.31 -15.5 4.1 77 -18.7 -1.6 -92.8 -3.654
17:07 1027 30.33 857 25.31 -15.7 3.8 78 -18.7 -1.7 -92.9 -3.657
17:08 1027 30.33 857 25.31 -15.7 3.8 79 -18.5 -1.3 -92.9 -3.657
17:09 1028 30.36 857 25.31 -15.7 3.7 80 -18.4 -1.1 -92.9 -3.657
17:10 1027 30.33 857 25.31 -15.7 3.8 81 -18.2 -0.8 -92.9 -3.657
17:11 1028 30.36 857 25.31 -15.5 4 81 -18.1 -0.6 -92.9 -3.657
17:12 1028 30.36 857 25.31 -15.6 4 80 -18.2 -0.8 -92.9 -3.657
17:13 1028 30.36 857 25.31 -15.6 3.8 80 -18.4 -1.1 -92.9 -3.657
17:14 1028 30.36 857 25.31 -15.7 3.7 80 -18.4 -1.2 -93 -3.661
17:15 1028 30.36 857 25.31 -15.8 3.6 79 -18.7 -1.6 -93 -3.661
17:16 1028 30.36 857 25.31 -15.8 3.6 79 -18.7 -1.6 -93 -3.661
17:17 1028 30.36 857 25.31 -15.7 3.7 81 -18.3 -1 -93 -3.661
17:18 1028 30.36 857 25.31 -15.6 4 83 -17.9 -0.2 -93 -3.661
17:19 1028 30.36 857 25.31 -15.3 4.5 83 -17.6 0.3 -93 -3.661
17:20 1028 30.36 857 25.31 -15.3 4.5 80 -17.9 -0.3 -93 -3.661
17:21 1028 30.36 857 25.31 -15.3 4.5 80 -18 -0.4 -93 -3.661
17:22 1028 30.36 857 25.31 -15.3 4.4 81 -17.9 -0.2 -93 -3.661
17:23 1028 30.36 857 25.31 -15.1 4.7 85 -17.2 1.1 -93 -3.661
17:24 1027 30.33 857 25.31 -15 5 81 -17.6 0.4 -93 -3.661
17:25 1027 30.33 857 25.31 -15.1 4.9 81 -17.6 0.3 -93 -3.661
17:26 1027 30.33 857 25.31 -15.2 4.7 82 -17.6 0.3 -93 -3.661
17:27 1027 30.33 857 25.31 -15.1 4.9 86 -16.9 1.5 -93 -3.661
17:28 1027 30.33 857 25.31 -14.7 5.5 85 -16.7 2 -93 -3.661
17:29 1027 30.33 857 25.31 -14.6 5.6 83 -17 1.4 -93 -3.661
17:30 1027 30.33 857 25.31 -14.6 5.7 85 -16.7 2 -93 -3.661
17:31 1027 30.33 857 25.31 -14.5 5.8 85 -16.6 2.1 -93.1 -3.665
17:32 1027 30.33 857 25.31 -14.6 5.7 82 -17.1 1.3 -93.1 -3.665
17:33 1027 30.33 857 25.31 -14.9 5.1 79 -17.8 0 -93.1 -3.665
17:34 1027 30.33 857 25.31 -15.2 4.7 84 -17.3 0.8 -93.1 -3.665
17:35 1027 30.33 857 25.31 -15 5.1 88 -16.6 2.2 -93.1 -3.665
17:36 1027 30.33 857 25.31 -14.5 5.9 89 -15.9 3.3 -93.1 -3.665
17:37 1027 30.33 857 25.31 -14.3 6.4 85 -16.2 2.8 -93.1 -3.665
17:38 1027 30.33 857 25.31 -14.5 6 80 -17.3 0.9 -93.1 -3.665
17:39 1027 30.33 857 25.31 -14.9 5.3 81 -17.4 0.7 -93.1 -3.665
17:40 1027 30.33 857 25.31 -15 5 84 -17.2 1 -93.2 -3.669
17:41 1027 30.33 857 25.31 -15.1 4.9 85 -17.1 1.2 -93.2 -3.669
17:42 1028 30.36 857 25.31 -15.1 4.9 85 -17 1.4 -93.2 -3.669
17:43 1027 30.33 857 25.31 -15 5.1 86 -16.8 1.7 -93.2 -3.669
17:44 1027 30.33 857 25.31 -14.8 5.3 85 -16.8 1.8 -93.2 -3.669
17:45 1027 30.33 857 25.31 -14.8 5.4 85 -16.8 1.7 -93.2 -3.669
17:46 1028 30.36 857 25.31 -14.8 5.4 84 -17 1.5 -93.2 -3.669
17:47 1028 30.36 857 25.31 -14.9 5.2 81 -17.5 0.5 -93.2 -3.669
17:48 1028 30.36 857 25.31 -15.2 4.7 81 -17.8 -0 -93.2 -3.669
17:49 1027 30.33 857 25.31 -15.2 4.6 85 -17.3 0.9 -93.2 -3.669
17:50 1027 30.33 857 25.31 -14.9 5.2 89 -16.4 2.5 -93.2 -3.669
17:51 1027 30.33 857 25.31 -14.4 6 88 -16 3.2 -93.2 -3.669
17:52 1028 30.36 857 25.31 -14.3 6.2 84 -16.5 2.4 -93.2 -3.669
17:53 1028 30.36 857 25.31 -14.3 6.3 86 -16.2 2.8 -93.2 -3.669
17:54 1027 30.33 857 25.31 -14 6.7 87 -15.8 3.6 -93.2 -3.669
17:55 1028 30.36 857 25.31 -13.7 7.3 87 -15.5 4.2 -93.2 -3.669
17:56 1028 30.36 857 25.31 -13.7 7.4 81 -16.3 2.6 -93.2 -3.669
17:57 1027 30.33 857 25.31 -14 6.7 80 -16.8 1.7 -93.2 -3.669
17:58 1028 30.36 857 25.31 -14.3 6.2 81 -16.9 1.5 -93.2 -3.669
17:59 1028 30.36 857 25.31 -14.6 5.8 82 -17 1.3 -93.2 -3.669
18:00 1028 30.36 857 25.31 -14.7 5.5 82 -17.2 1 -93.2 -3.669
18:01 1028 30.36 857 25.31 -15 5.1 81 -17.6 0.4 -93.3 -3.673
18:02 1028 30.36 857 25.31 -15.1 4.7 84 -17.3 0.8 -93.3 -3.673
18:03 1027 30.33 857 25.31 -15.2 4.7 84 -17.3 0.9 -93.3 -3.673
18:04 1027 30.33 857 25.31 -15.4 4.4 83 -17.7 0.2 -93.3 -3.673
18:05 1028 30.36 857 25.31 -15.5 4 84 -17.6 0.3 -93.3 -3.673
18:06 1027 30.33 857 25.31 -15.5 4.1 87 -17.2 1 -93.3 -3.673
18:07 1027 30.33 857 25.31 -15.5 4.2 87 -17.2 1 -93.3 -3.673
18:08 1027 30.33 857 25.31 -15.4 4.2 88 -17 1.4 -93.3 -3.673
18:09 1027 30.33 857 25.31 -15.3 4.4 87 -17 1.4 -93.3 -3.673
18:10 1027 30.33 857 25.31 -15.3 4.5 88 -16.8 1.7 -93.3 -3.673
18:11 1027 30.33 857 25.31 -15.2 4.7 88 -16.7 1.9 -93.3 -3.673
18:12 1027 30.33 857 25.31 -15.1 4.8 88 -16.7 2 -93.3 -3.673
18:13 1027 30.33 857 25.31 -15 5 90 -16.3 2.6 -93.3 -3.673
18:14 1027 30.33 857 25.31 -14.8 5.4 89 -16.2 2.8 -93.3 -3.673
18:15 1027 30.33 857 25.31 -14.8 5.3 86 -16.8 1.8 -93.3 -3.673
18:16 1027 30.33 857 25.31 -15.1 4.9 84 -17.2 1.1 -93.3 -3.673
18:17 1027 30.33 857 25.31 -15.3 4.5 85 -17.2 1 -93.3 -3.673
18:18 1027 30.33 857 25.31 -15.4 4.3 86 -17.3 0.9 -93.3 -3.673
18:19 1027 30.33 857 25.31 -15.5 4.2 87 -17.2 1 -93.3 -3.673
18:20 1027 30.33 857 25.31 -15.5 4.1 87 -17.2 1.1 -93.3 -3.673
18:21 1027 30.33 857 25.31 -15.4 4.2 88 -17.1 1.3 -93.3 -3.673
18:22 1027 30.33 857 25.31 -15.5 4.1 87 -17.3 0.9 -93.3 -3.673
18:23 1027 30.33 857 25.31 -15.4 4.2 89 -16.8 1.7 -93.4 -3.677
18:24 1027 30.33 857 25.31 -15.2 4.6 89 -16.6 2.2 -93.4 -3.677
18:25 1027 30.33 857 25.31 -15.2 4.7 89 -16.7 2 -93.4 -3.677
18:26 1028 30.36 857 25.31 -15.2 4.7 89 -16.7 2 -93.4 -3.677
18:27 1028 30.36 857 25.31 -14.8 5.4 93 -15.7 3.8 -93.4 -3.677
18:28 1028 30.36 857 25.31 -14.5 6 90 -15.8 3.6 -93.4 -3.677
18:29 1028 30.36 857 25.31 -14.9 5.1 81 -17.5 0.4 -93.4 -3.677
18:30 1027 30.33 857 25.31 -15.5 4 81 -18.1 -0.5 -93.4 -3.677
18:31 1028 30.36 857 25.31 -15.9 3.3 83 -18.1 -0.6 -93.4 -3.677
18:32 1028 30.36 857 25.31 -16.1 3 86 -18 -0.4 -93.4 -3.677
18:33 1028 30.36 857 25.31 -16.1 3 87 -17.8 0 -93.4 -3.677
18:34 1028 30.36 857 25.31 -16 3.1 87 -17.7 0.1 -93.4 -3.677
18:35 1028 30.36 857 25.31 -16.1 2.9 85 -18.1 -0.5 -93.4 -3.677
18:36 1028 30.36 857 25.31 -16.3 2.8 85 -18.3 -0.9 -93.4 -3.677
18:37 1028 30.36 857 25.31 -16.3 2.6 85 -18.3 -1 -93.4 -3.677
18:38 1028 30.36 857 25.31 -16.4 2.6 84 -18.4 -1.2 -93.4 -3.677
18:39 1028 30.36 857 25.31 -16.5 2.3 83 -18.7 -1.7 -93.5 -3.681
18:40 1028 30.36 857 25.31 -16.6 2.1 83 -18.8 -1.9 -93.5 -3.681
18:41 1028 30.36 857 25.31 -16.8 1.8 83 -19 -2.3 -93.5 -3.681
18:42 1028 30.36 857 25.31 -17 1.5 82 -19.4 -2.9 -93.5 -3.681
18:43 1028 30.36 857 25.31 -17.2 1 82 -19.6 -3.3 -93.5 -3.681
18:44 1028 30.36 857 25.31 -17.4 0.7 83 -19.7 -3.5 -93.5 -3.681
18:45 1028 30.36 857 25.31 -17.5 0.5 85 -19.4 -3 -93.5 -3.681
18:46 1028 30.36 857 25.31 -17.5 0.5 84 -19.5 -3.1 -93.5 -3.681
18:47 1028 30.36 857 25.31 -17.6 0.4 85 -19.5 -3.1 -93.5 -3.681
18:48 1027 30.33 857 25.31 -17.5 0.5 87 -19.2 -2.5 -93.5 -3.681
18:49 1027 30.33 857 25.31 -17.3 0.8 87 -19 -2.2 -93.5 -3.681
18:50 1027 30.33 857 25.31 -17.3 0.9 86 -19.1 -2.3 -93.5 -3.681
18:51 1027 30.33 857 25.31 -17.3 0.9 86 -19.1 -2.4 -93.5 -3.681
18:52 1027 30.33 857 25.31 -17 1.4 91 -18.2 -0.8 -93.5 -3.681
18:53 1027 30.33 857 25.31 -16.4 2.5 91 -17.5 0.5 -93.5 -3.681
18:54 1027 30.33 857 25.31 -16.4 2.5 86 -18.2 -0.7 -93.5 -3.681
18:55 1028 30.36 857 25.31 -16.5 2.3 86 -18.3 -1 -93.5 -3.681
18:56 1028 30.36 857 25.31 -16.6 2.2 85 -18.6 -1.5 -93.6 -3.685
18:57 1028 30.36 857 25.31 -16.8 1.8 84 -19 -2.1 -93.6 -3.685
18:58 1028 30.36 857 25.31 -16.9 1.6 85 -18.8 -1.9 -93.6 -3.685
18:59 1028 30.36 857 25.31 -16.8 1.8 89 -18.3 -0.9 -93.6 -3.685
19:00 1028 30.36 857 25.31 -16.4 2.5 90 -17.6 0.3 -93.6 -3.685
19:01 1028 30.36 857 25.31 -16 3.2 91 -17.2 1 -93.6 -3.685
19:02 1028 30.36 857 25.31 -15.7 3.7 90 -16.9 1.5 -93.6 -3.685
19:03 1028 30.36 857 25.31 -15.5 4.2 88 -17.1 1.2 -93.6 -3.685
19:04 1028 30.36 857 25.31 -15.4 4.3 85 -17.4 0.7 -93.6 -3.685
19:05 1028 30.36 857 25.31 -15.6 3.9 82 -18.1 -0.5 -93.6 -3.685
19:06 1028 30.36 857 25.31 -15.8 3.5 84 -17.9 -0.2 -93.6 -3.685
19:07 1028 30.36 857 25.31 -15.8 3.6 85 -17.7 0.1 -93.6 -3.685
19:08 1028 30.36 857 25.31 -15.7 3.8 88 -17.3 0.9 -93.6 -3.685
19:09 1028 30.36 857 25.31 -15.3 4.5 91 -16.4 2.4 -93.6 -3.685
19:10 1028 30.36 857 25.31 -14.7 5.5 92 -15.8 3.6 -93.6 -3.685
19:11 1028 30.36 857 25.31 -14.4 6 87 -16.2 2.9 -93.6 -3.685
19:12 1028 30.36 857 25.31 -14.3 6.2 86 -16.1 2.9 -93.6 -3.685
19:13 1028 30.36 857 25.31 -14.3 6.3 85 -16.2 2.8 -93.6 -3.685
19:14 1028 30.36 857 25.31 -14.2 6.5 85 -16.2 2.9 -93.6 -3.685
19:15 1028 30.36 857 25.31 -14.2 6.5 84 -16.3 2.7 -93.6 -3.685
19:16 1028 30.36 857 25.31 -14.2 6.5 85 -16.2 2.9 -93.6 -3.685
19:17 1028 30.36 857 25.31 -14.1 6.7 86 -15.9 3.4 -93.6 -3.685
19:18 1028 30.36 857 25.31 -13.8 7.1 86 -15.7 3.8 -93.6 -3.685
19:19 1028 30.36 857 25.31 -13.7 7.4 86 -15.6 4 -93.6 -3.685
19:20 1028 30.36 857 25.31 -13.4 7.8 87 -15.1 4.8 -93.5 -3.681
19:21 1028 30.36 857 25.31 -13 8.6 86 -14.8 5.3 -93.5 -3.681
19:22 1027 30.33 857 25.31 -12.7 9.1 82 -15.2 4.6 -93.5 -3.681
19:23 1027 30.33 857 25.31 -12.7 9.1 80 -15.5 4.2 -93.5 -3.681
19:24 1027 30.33 857 25.31 -12.8 8.9 82 -15.3 4.4 -93.5 -3.681
19:25 1027 30.33 857 25.31 -12.8 8.9 81 -15.4 4.3 -93.5 -3.681
19:26 1027 30.33 857 25.31 -12.9 8.8 82 -15.4 4.3 -93.5 -3.681
19:27 1027 30.33 857 25.31 -12.9 8.8 83 -15.1 4.7 -93.5 -3.681
19:28 1027 30.33 857 25.31 -12.8 9 83 -15.1 4.9 -93.5 -3.681
19:29 1027 30.33 857 25.31 -12.7 9.2 83 -15 5.1 -93.5 -3.681
19:30 1027 30.33 857 25.31 -12.7 9.2 84 -14.9 5.2 -93.5 -3.681
19:31 1027 30.33 857 25.31 -12.5 9.4 82 -14.9 5.1 -93.5 -3.681
19:32 1027 30.33 857 25.31 -12.5 9.6 82 -14.9 5.2 -93.5 -3.681
19:33 1027 30.33 857 25.31 -12.5 9.6 81 -15 4.9 -93.5 -3.681
19:34 1027 30.33 857 25.31 -12.5 9.5 81 -15.1 4.8 -93.5 -3.681
19:35 1027 30.33 857 25.31 -12.6 9.2 81 -15.3 4.5 -93.5 -3.681
19:36 1027 30.33 857 25.31 -12.8 9 81 -15.4 4.4 -93.5 -3.681
19:37 1027 30.33 857 25.31 -12.8 9 83 -15.2 4.7 -93.5 -3.681
19:38 1027 30.33 857 25.31 -12.8 8.9 82 -15.3 4.4 -93.5 -3.681
19:39 1027 30.33 857 25.31 -12.9 8.9 83 -15.2 4.6 -93.5 -3.681
19:40 1027 30.33 857 25.31 -12.9 8.8 83 -15.2 4.6 -93.5 -3.681
19:41 1027 30.33 857 25.31 -12.8 9 84 -14.9 5.2 -93.5 -3.681
19:42 1027 30.33 857 25.31 -12.6 9.3 83 -14.9 5.2 -93.5 -3.681
19:43 1027 30.33 857 25.31 -12.7 9.2 83 -15 5 -93.5 -3.681
19:44 1027 30.33 857 25.31 -12.7 9.2 83 -14.9 5.2 -93.5 -3.681
19:45 1027 30.33 857 25.31 -12.6 9.3 84 -14.7 5.5 -93.4 -3.677
19:46 1027 30.33 857 25.31 -12.3 10 85 -14.2 6.4 -93.4 -3.677
19:47 1027 30.33 857 25.31 -12.1 10.2 83 -14.4 6 -93.4 -3.677
19:48 1027 30.33 857 25.31 -12.1 10.3 83 -14.4 6.1 -93.4 -3.677
19:49 1028 30.36 857 25.31 -12.1 10.3 83 -14.4 6.2 -93.4 -3.677
19:50 1028 30.36 857 25.31 -12.1 10.3 83 -14.4 6 -93.4 -3.677
19:51 1028 30.36 857 25.31 -12.1 10.2 83 -14.4 6.1 -93.4 -3.677
19:52 1028 30.36 857 25.31 -12 10.3 83 -14.4 6.1 -93.4 -3.677
19:53 1028 30.36 857 25.31 -12 10.3 83 -14.4 6.1 -93.4 -3.677
19:54 1028 30.36 857 25.31 -12 10.4 83 -14.4 6.1 -93.4 -3.677
19:55 1027 30.33 857 25.31 -12 10.4 82 -14.4 6 -93.4 -3.677
19:56 1028 30.36 857 25.31 -12 10.4 82 -14.5 6 -93.4 -3.677
19:57 1028 30.36 857 25.31 -12.1 10.3 82 -14.5 5.8 -93.4 -3.677
19:58 1027 30.33 857 25.31 -12.1 10.2 82 -14.6 5.7 -93.4 -3.677
19:59 1028 30.36 857 25.31 -12.1 10.2 83 -14.5 6 -93.4 -3.677
20:00 1028 30.36 857 25.31 -12.1 10.3 83 -14.4 6.1 -93.4 -3.677
20:01 1028 30.36 857 25.31 -12 10.5 83 -14.2 6.4 -93.4 -3.677
20:02 1028 30.36 857 25.31 -11.8 10.7 83 -14.1 6.6 -93.4 -3.677
20:03 1028 30.36 857 25.31 -11.8 10.8 84 -14 6.7 -93.4 -3.677
20:04 1028 30.36 857 25.31 -11.7 10.9 84 -14 6.9 -93.4 -3.677
20:05 1028 30.36 857 25.31 -11.7 11 84 -13.9 7 -93.4 -3.677
20:06 1028 30.36 857 25.31 -11.6 11 84 -13.9 7.1 -93.4 -3.677
20:07 1028 30.36 857 25.31 -11.6 11.1 84 -13.8 7.2 -93.4 -3.677
20:08 1028 30.36 857 25.31 -11.5 11.2 84 -13.8 7.2 -93.4 -3.677
20:09 1028 30.36 857 25.31 -11.5 11.2 84 -13.8 7.2 -93.4 -3.677
20:10 1028 30.36 857 25.31 -11.5 11.3 84 -13.7 7.3 -93.4 -3.677
20:11 1028 30.36 857 25.31 -11.5 11.4 84 -13.7 7.4 -93.3 -3.673
20:12 1028 30.36 857 25.31 -11.4 11.5 84 -13.5 7.7 -93.3 -3.673
20:13 1028 30.36 857 25.31 -11.3 11.6 84 -13.5 7.8 -93.3 -3.673
20:14 1028 30.36 857 25.31 -11.2 11.8 85 -13.3 8 -93.3 -3.673
20:15 1028 30.36 857 25.31 -11 12.1 84 -13.2 8.2 -93.3 -3.673
20:16 1028 30.36 857 25.31 -11 12.3 83 -13.3 8 -93.3 -3.673
20:17 1028 30.36 857 25.31 -11 12.1 83 -13.5 7.8 -93.3 -3.673
20:18 1028 30.36 857 25.31 -11.1 12.1 83 -13.5 7.8 -93.3 -3.673
20:19 1028 30.36 857 25.31 -11.1 12.1 83 -13.5 7.8 -93.3 -3.673
20:20 1028 30.36 857 25.31 -11.1 12 82 -13.5 7.6 -93.3 -3.673
20:21 1028 30.36 857 25.31 -11.2 11.9 82 -13.6 7.5 -93.3 -3.673
20:22 1028 30.36 857 25.31 -11.3 11.7 82 -13.7 7.4 -93.3 -3.673
20:23 1028 30.36 857 25.31 -11.3 11.7 83 -13.7 7.4 -93.3 -3.673
20:24 1028 30.36 857 25.31 -11.4 11.6 83 -13.7 7.3 -93.3 -3.673
20:25 1028 30.36 857 25.31 -11.4 11.5 83 -13.7 7.3 -93.3 -3.673
20:26 1028 30.36 857 25.31 -11.4 11.6 83 -13.7 7.3 -93.3 -3.673
20:27 1028 30.36 857 25.31 -11.4 11.5 80 -14.1 6.6 -93.3 -3.673
20:28 1028 30.36 857 25.31 -11.7 11 81 -14.4 6.2 -93.3 -3.673
20:29 1028 30.36 857 25.31 -11.8 10.7 80 -14.6 5.8 -93.3 -3.673
20:30 1028 30.36 857 25.31 -12 10.3 81 -14.6 5.7 -93.3 -3.673
20:31 1028 30.36 857 25.31 -12.1 10.2 82 -14.6 5.7 -93.3 -3.673
20:32 1028 30.36 857 25.31 -12.3 9.9 82 -14.8 5.4 -93.3 -3.673
20:33 1028 30.36 857 25.31 -12.4 9.7 82 -14.8 5.3 -93.3 -3.673
20:34 1028 30.36 857 25.31 -12.5 9.6 83 -14.8 5.4 -93.3 -3.673
20:35 1028 30.36 857 25.31 -12.5 9.6 83 -14.8 5.4 -93.3 -3.673
20:36 1028 30.36 857 25.31 -12.5 9.5 82 -15 5.1 -93.3 -3.673
20:37 1028 30.36 857 25.31 -12.5 9.5 82 -15 5.1 -93.3 -3.673
20:38 1028 30.36 857 25.31 -12.6 9.4 82 -15.1 4.9 -93.3 -3.673
20:39 1028 30.36 857 25.31 -12.7 9.2 81 -15.2 4.6 -93.3 -3.673
20:40 1028 30.36 857 25.31 -12.8 9 83 -15.1 4.9 -93.3 -3.673
20:41 1028 30.36 857 25.31 -12.7 9.2 85 -14.7 5.5 -93.3 -3.673
20:42 1028 30.36 857 25.31 -12.5 9.5 84 -14.6 5.7 -93.3 -3.673
20:43 1028 30.36 857 25.31 -12.3 9.9 85 -14.3 6.3 -93.3 -3.673
20:44 1028 30.36 857 25.31 -12.1 10.1 84 -14.3 6.3 -93.3 -3.673
20:45 1028 30.36 857 25.31 -12.2 10.1 80 -14.9 5.2 -93.3 -3.673
20:46 1028 30.36 857 25.31 -12.4 9.7 82 -14.9 5.2 -93.3 -3.673
20:47 1028 30.36 857 25.31 -12.3 9.8 85 -14.4 6.2 -93.3 -3.673
20:48 1028 30.36 857 25.31 -12.1 10.3 84 -14.3 6.2 -93.3 -3.673
20:49 1028 30.36 857 25.31 -12.1 10.2 84 -14.3 6.2 -93.3 -3.673
20:50 1028 30.36 857 25.31 -12 10.5 81 -14.7 5.6 -93.3 -3.673
20:51 1028 30.36 857 25.31 -12.2 10.1 79 -15.1 4.7 -93.3 -3.673
20:52 1028 30.36 857 25.31 -12.4 9.8 83 -14.7 5.6 -93.3 -3.673
20:53 1028 30.36 857 25.31 -12.3 9.8 83 -14.7 5.6 -93.3 -3.673
20:54 1028 30.36 857 25.31 -12.3 9.9 82 -14.7 5.5 -93.3 -3.673
20:55 1028 30.36 857 25.31 -12.3 9.8 81 -15 5.1 -93.3 -3.673
20:56 1028 30.36 857 25.31 -12.4 9.7 82 -14.8 5.3 -93.3 -3.673
20:57 1028 30.36 857 25.31 -12.4 9.6 82 -15 5.1 -93.3 -3.673
20:58 1028 30.36 857 25.31 -12.4 9.7 83 -14.7 5.5 -93.3 -3.673
20:59 1028 30.36 857 25.31 -12.3 9.8 82 -14.8 5.3 -93.3 -3.673
21:00 1028 30.36 857 25.31 -12.4 9.7 81 -14.9 5.1 -93.3 -3.673
21:01 1028 30.36 857 25.31 -12.5 9.6 81 -15.1 4.8 -93.3 -3.673
21:02 1028 30.36 857 25.31 -12.6 9.4 81 -15.2 4.7 -93.3 -3.673
21:03 1028 30.36 857 25.31 -12.7 9.1 81 -15.3 4.4 -93.3 -3.673
21:04 1028 30.36 857 25.31 -12.8 9 82 -15.2 4.6 -93.3 -3.673
21:05 1028 30.36 857 25.31 -12.8 9 82 -15.2 4.6 -93.3 -3.673
21:06 1028 30.36 857 25.31 -12.8 9 82 -15.2 4.6 -93.3 -3.673
21:07 1028 30.36 857 25.31 -12.8 9 83 -15.1 4.8 -93.3 -3.673
21:08 1028 30.36 857 25.31 -12.8 9 82 -15.3 4.4 -93.3 -3.673
21:09 1028 30.36 857 25.31 -12.9 8.8 82 -15.4 4.4 -93.3 -3.673
21:10 1028 30.36 857 25.31 -13 8.7 82 -15.4 4.3 -93.3 -3.673
21:11 1028 30.36 857 25.31 -13 8.7 83 -15.3 4.5 -93.3 -3.673
21:12 1028 30.36 857 25.31 -13 8.7 84 -15.1 4.8 -93.3 -3.673
21:13 1028 30.36 857 25.31 -12.8 8.9 84 -14.9 5.1 -93.3 -3.673
21:14 1028 30.36 857 25.31 -12.7 9.2 84 -14.9 5.3 -93.3 -3.673
21:15 1028 30.36 857 25.31 -12.5 9.4 84 -14.8 5.4 -93.3 -3.673
21:16 1028 30.36 857 25.31 -12.5 9.6 83 -14.8 5.3 -93.3 -3.673
21:17 1028 30.36 857 25.31 -12.4 9.7 82 -14.9 5.2 -93.3 -3.673
21:18 1028 30.36 857 25.31 -12.3 9.8 83 -14.7 5.6 -93.3 -3.673
21:19 1028 30.36 857 25.31 -12.2 10 82 -14.6 5.7 -93.3 -3.673
21:20 1028 30.36 857 25.31 -12.2 10.1 82 -14.7 5.6 -93.3 -3.673
21:21 1028 30.36 857 25.31 -12.2 10.1 81 -14.7 5.5 -93.3 -3.673
21:22 1028 30.36 857 25.31 -12.2 10.1 80 -15 5 -93.3 -3.673
21:23 1028 30.36 857 25.31 -12.3 9.9 81 -14.9 5.3 -93.3 -3.673
21:24 1028 30.36 857 25.31 -12.2 10 82 -14.8 5.4 -93.3 -3.673
21:25 1028 30.36 857 25.31 -12.2 10 80 -14.9 5.1 -93.3 -3.673
21:26 1028 30.36 857 25.31 -12.3 9.8 80 -15.1 4.9 -93.3 -3.673
21:27 1028 30.36 857 25.31 -12.4 9.6 80 -15.1 4.7 -93.3 -3.673
21:28 1028 30.36 857 25.31 -12.5 9.5 82 -15 4.9 -93.3 -3.673
21:29 1028 30.36 857 25.31 -12.5 9.6 83 -14.8 5.4 -93.3 -3.673
21:30 1028 30.36 857 25.31 -12.3 9.8 84 -14.6 5.8 -93.3 -3.673
21:31 1028 30.36 857 25.31 -12.2 10.1 82 -14.6 5.7 -93.3 -3.673
21:32 1028 30.36 857 25.31 -12.2 10.1 80 -15 5.1 -93.3 -3.673
21:33 1028 30.36 857 25.31 -12.3 9.8 81 -15 5 -93.3 -3.673
21:34 1028 30.36 857 25.31 -12.4 9.7 83 -14.7 5.5 -93.3 -3.673
21:35 1028 30.36 857 25.31 -12.2 10.1 83 -14.5 5.9 -93.3 -3.673
21:36 1028 30.36 857 25.31 -12.1 10.2 81 -14.7 5.5 -93.3 -3.673
21:37 1028 30.36 857 25.31 -12.1 10.1 81 -14.7 5.5 -93.3 -3.673
21:38 1028 30.36 857 25.31 -12 10.3 82 -14.5 5.9 -93.3 -3.673
21:39 1028 30.36 857 25.31 -11.9 10.6 81 -14.5 5.9 -93.3 -3.673
21:40 1028 30.36 857 25.31 -11.9 10.6 81 -14.5 5.8 -93.3 -3.673
21:41 1028 30.36 857 25.31 -11.8 10.7 82 -14.4 6.1 -93.3 -3.673
21:42 1028 30.36 857 25.31 -11.8 10.8 80 -14.6 5.8 -93.3 -3.673
21:43 1028 30.36 857 25.31 -11.9 10.6 79 -14.8 5.4 -93.3 -3.673
21:44 1028 30.36 857 25.31 -12 10.4 79 -14.9 5.3 -93.3 -3.673
21:45 1028 30.36 857 25.31 -12.2 10.1 80 -15 5 -93.3 -3.673
21:46 1028 30.36 857 25.31 -12.2 10 81 -14.9 5.2 -93.3 -3.673
21:47 1028 30.36 857 25.31 -12.2 10 81 -14.8 5.4 -93.3 -3.673
21:48 1028 30.36 857 25.31 -12.2 10.1 81 -14.8 5.4 -93.3 -3.673
21:49 1028 30.36 857 25.31 -12.2 10 81 -14.9 5.1 -93.3 -3.673
21:50 1028 30.36 857 25.31 -12.3 9.9 80 -15 5 -93.3 -3.673
21:51 1028 30.36 857 25.31 -12.4 9.7 80 -15.2 4.7 -93.3 -3.673
21:52 1028 30.36 857 25.31 -12.5 9.5 80 -15.3 4.4 -93.3 -3.673
21:53 1028 30.36 857 25.31 -12.6 9.3 80 -15.4 4.3 -93.3 -3.673
21:54 1028 30.36 857 25.31 -12.7 9.1 81 -15.4 4.2 -93.3 -3.673
21:55 1028 30.36 857 25.31 -12.8 9 81 -15.4 4.2 -93.3 -3.673
21:56 1028 30.36 857 25.31 -12.8 8.9 82 -15.4 4.3 -93.3 -3.673
21:57 1028 30.36 857 25.31 -12.9 8.9 82 -15.3 4.5 -93.3 -3.673
21:58 1028 30.36 857 25.31 -12.8 8.9 84 -15 5 -93.3 -3.673
21:59 1028 30.36 857 25.31 -12.7 9.1 84 -14.9 5.2 -93.3 -3.673
22:00 1028 30.36 857 25.31 -12.6 9.3 84 -14.8 5.4 -93.3 -3.673
22:01 1028 30.36 857 25.31 -12.5 9.6 84 -14.7 5.6 -93.3 -3.673
22:02 1028 30.36 857 25.31 -12.3 9.8 83 -14.7 5.6 -93.3 -3.673
22:03 1028 30.36 857 25.31 -12.3 9.9 83 -14.6 5.7 -93.3 -3.673
22:04 1028 30.36 857 25.31 -12.2 10 83 -14.5 5.9 -93.3 -3.673
22:05 1028 30.36 857 25.31 -12.2 10.1 83 -14.5 5.9 -93.3 -3.673
22:06 1028 30.36 857 25.31 -12.1 10.3 83 -14.4 6.1 -93.3 -3.673
22:07 1028 30.36 857 25.31 -12 10.4 83 -14.4 6.1 -93.3 -3.673
22:08 1028 30.36 857 25.31 -12 10.5 82 -14.5 6 -93.3 -3.673
22:09 1028 30.36 857 25.31 -12 10.3 81 -14.7 5.6 -93.3 -3.673
22:10 1028 30.36 857 25.31 -12.1 10.2 81 -14.7 5.6 -93.3 -3.673
22:11 1028 30.36 857 25.31 -12.1 10.2 83 -14.4 6.1 -93.3 -3.673
22:12 1028 30.36 857 25.31 -12 10.4 83 -14.3 6.2 -93.3 -3.673
22:13 1028 30.36 857 25.31 -11.9 10.6 83 -14.2 6.4 -93.3 -3.673
22:14 1028 30.36 857 25.31 -11.8 10.9 83 -14.1 6.6 -93.3 -3.673
22:15 1028 30.36 857 25.31 -11.6 11.1 83 -14 6.8 -93.3 -3.673
22:16 1028 30.36 857 25.31 -11.5 11.4 82 -14 6.8 -93.3 -3.673
22:17 1028 30.36 857 25.31 -11.4 11.6 81 -14.1 6.7 -93.3 -3.673
22:18 1028 30.36 857 25.31 -11.3 11.6 79 -14.2 6.4 -93.3 -3.673
22:19 1028 30.36 857 25.31 -11.4 11.5 79 -14.3 6.2 -93.3 -3.673
22:20 1028 30.36 857 25.31 -11.5 11.3 80 -14.3 6.2 -93.3 -3.673
22:21 1028 30.36 857 25.31 -11.6 11.2 80 -14.3 6.2 -93.3 -3.673
22:22 1028 30.36 857 25.31 -11.6 11.1 80 -14.4 6.1 -93.3 -3.673
22:23 1028 30.36 857 25.31 -11.6 11.1 81 -14.2 6.4 -93.3 -3.673
22:24 1028 30.36 857 25.31 -11.6 11.2 81 -14.2 6.4 -93.3 -3.673
22:25 1028 30.36 857 25.31 -11.4 11.4 81 -14 6.7 -93.3 -3.673
22:26 1028 30.36 857 25.31 -11.3 11.7 80 -14 6.8 -93.3 -3.673
22:27 1028 30.36 858 25.34 -11.1 12 80 -14 6.9 -93.3 -3.673
22:28 1028 30.36 857 25.31 -11 12.3 79 -13.9 7 -93.3 -3.673
22:29 1028 30.36 857 25.31 -10.8 12.5 78 -13.9 7 -93.3 -3.673
22:30 1028 30.36 857 25.31 -10.8 12.7 78 -13.9 6.9 -93.3 -3.673
22:31 1028 30.36 857 25.31 -10.6 12.8 77 -13.9 7 -93.3 -3.673
22:32 1028 30.36 857 25.31 -10.6 12.9 77 -13.9 6.9 -93.3 -3.673
22:33 1028 30.36 857 25.31 -10.5 13.1 76 -14 6.8 -93.3 -3.673
22:34 1028 30.36 858 25.34 -10.5 13.1 76 -14 6.8 -93.2 -3.669
22:35 1028 30.36 858 25.34 -10.5 13.2 76 -14 6.8 -93.2 -3.669
22:36 1028 30.36 858 25.34 -10.5 13.2 75 -14.2 6.5 -93.2 -3.669
22:37 1028 30.36 858 25.34 -10.5 13.1 75 -14.1 6.6 -93.2 -3.669
22:38 1028 30.36 858 25.34 -10.5 13 76 -14.1 6.7 -93.2 -3.669
22:39 1028 30.36 857 25.31 -10.5 13.1 75 -14.1 6.6 -93.2 -3.669
22:40 1028 30.36 858 25.34 -10.5 13.2 75 -14.1 6.7 -93.2 -3.669
22:41 1028 30.36 858 25.34 -10.4 13.3 75 -14.1 6.7 -93.2 -3.669
22:42 1028 30.36 858 25.34 -10.4 13.3 75 -14 6.7 -93.2 -3.669
22:43 1028 30.36 858 25.34 -10.3 13.5 75 -14 6.8 -93.2 -3.669
22:44 1028 30.36 858 25.34 -10.2 13.6 74 -14 6.9 -93.2 -3.669
22:45 1028 30.36 858 25.34 -10.2 13.6 75 -13.9 7 -93.2 -3.669
22:46 1028 30.36 858 25.34 -10 14 74 -13.8 7.1 -93.2 -3.669
22:47 1028 30.36 858 25.34 -9.7 14.6 72 -13.8 7.1 -93.2 -3.669
22:48 1028 30.36 858 25.34 -9.4 15.1 71 -13.8 7.2 -93.2 -3.669
22:49 1028 30.36 858 25.34 -9.2 15.5 70 -13.7 7.3 -93.2 -3.669
22:50 1028 30.36 858 25.34 -9 15.9 69 -13.7 7.3 -93.2 -3.669
22:51 1028 30.36 858 25.34 -8.9 16 69 -13.6 7.6 -93.2 -3.669
22:52 1028 30.36 858 25.34 -8.9 16 69 -13.5 7.6 -93.2 -3.669
22:53 1028 30.36 858 25.34 -8.8 16.3 69 -13.5 7.8 -93.2 -3.669
22:54 1028 30.36 858 25.34 -8.5 16.6 66 -13.7 7.3 -93.2 -3.669
22:55 1028 30.36 858 25.34 -8.5 16.6 67 -13.6 7.5 -93.2 -3.669
22:56 1028 30.36 858 25.34 -8.6 16.4 68 -13.5 7.7 -93.2 -3.669
22:57 1028 30.36 858 25.34 -8.7 16.4 68 -13.6 7.6 -93.2 -3.669
22:58 1028 30.36 858 25.34 -8.7 16.4 68 -13.5 7.7 -93.2 -3.669
22:59 1028 30.36 858 25.34 -8.7 16.4 68 -13.5 7.8 -93.2 -3.669
23:00 1028 30.36 858 25.34 -8.5 16.6 68 -13.3 8 -93.2 -3.669
23:01 1028 30.36 858 25.34 -8.4 16.9 68 -13.4 8 -93.2 -3.669
23:02 1028 30.36 858 25.34 -8.4 17 67 -13.4 7.9 -93.2 -3.669
23:03 1028 30.36 858 25.34 -8.3 17 67 -13.4 7.9 -93.2 -3.669
23:04 1028 30.36 858 25.34 -8.4 16.9 67 -13.4 7.9 -93.2 -3.669
23:05 1028 30.36 858 25.34 -8.4 16.8 68 -13.4 7.9 -93.2 -3.669
23:06 1028 30.36 858 25.34 -8.5 16.7 68 -13.5 7.8 -93.2 -3.669
23:07 1028 30.36 858 25.34 -8.7 16.4 68 -13.5 7.6 -93.2 -3.669
23:08 1028 30.36 858 25.34 -8.9 16.1 69 -13.6 7.6 -93.2 -3.669
23:09 1028 30.36 858 25.34 -9.1 15.7 70 -13.6 7.6 -93.2 -3.669
23:10 1028 30.36 858 25.34 -9.3 15.2 70 -13.8 7.2 -93.2 -3.669
23:11 1028 30.36 858 25.34 -9.5 14.8 71 -13.9 6.9 -93.2 -3.669
23:12 1028 30.36 858 25.34 -9.8 14.4 71 -14.1 6.6 -93.2 -3.669
23:13 1028 30.36 858 25.34 -10.1 13.9 71 -14.3 6.2 -93.2 -3.669
23:14 1028 30.36 858 25.34 -10.4 13.3 72 -14.5 5.9 -93.2 -3.669
23:15 1028 30.36 858 25.34 -10.6 12.9 73 -14.5 5.8 -93.3 -3.673
23:16 1028 30.36 858 25.34 -10.9 12.5 75 -14.5 5.9 -93.3 -3.673
23:17 1028 30.36 858 25.34 -10.9 12.3 76 -14.4 6.2 -93.3 -3.673
23:18 1028 30.36 858 25.34 -10.9 12.4 77 -14.2 6.5 -93.3 -3.673
23:19 1028 30.36 858 25.34 -10.8 12.5 78 -14 6.8 -93.2 -3.669
23:20 1028 30.36 858 25.34 -10.6 12.9 77 -13.9 6.9 -93.2 -3.669
23:21 1028 30.36 858 25.34 -10.4 13.2 75 -14 6.7 -93.2 -3.669
23:22 1028 30.36 858 25.34 -10.3 13.4 75 -14 6.9 -93.2 -3.669
23:23 1028 30.36 858 25.34 -10.2 13.6 75 -13.9 6.9 -93.2 -3.669
23:24 1028 30.36 858 25.34 -10.1 13.8 74 -13.9 7 -93.2 -3.669
23:25 1028 30.36 858 25.34 -9.9 14.1 73 -13.8 7.1 -93.2 -3.669
23:26 1028 30.36 858 25.34 -9.8 14.3 73 -13.8 7.1 -93.2 -3.669
23:27 1028 30.36 858 25.34 -9.8 14.4 73 -13.8 7.2 -93.2 -3.669
23:28 1028 30.36 858 25.34 -9.8 14.4 73 -13.8 7.2 -93.2 -3.669
23:29 1028 30.36 858 25.34 -9.8 14.4 72 -13.8 7.1 -93.2 -3.669
23:30 1028 30.36 858 25.34 -9.8 14.4 72 -13.9 7 -93.2 -3.669
23:31 1028 30.36 858 25.34 -9.9 14.2 73 -13.9 6.9 -93.2 -3.669
23:32 1028 30.36 858 25.34 -10 14.1 73 -14 6.8 -93.2 -3.669
23:33 1028 30.36 858 25.34 -10.1 13.9 73 -14 6.8 -93.2 -3.669
23:34 1028 30.36 858 25.34 -10.1 13.8 73 -14.1 6.7 -93.2 -3.669
23:35 1028 30.36 858 25.34 -10.2 13.7 74 -14 6.7 -93.2 -3.669
23:36 1028 30.36 858 25.34 -10.3 13.5 74 -14.1 6.6 -93.2 -3.669
23:37 1028 30.36 858 25.34 -10.4 13.3 74 -14.2 6.4 -93.3 -3.673
23:38 1028 30.36 858 25.34 -10.5 13.1 73 -14.4 6.1 -93.3 -3.673
23:39 1028 30.36 858 25.34 -10.7 12.8 74 -14.5 5.9 -93.3 -3.673
23:40 1028 30.36 858 25.34 -10.8 12.6 74 -14.5 5.9 -93.3 -3.673
23:41 1028 30.36 858 25.34 -10.9 12.4 75 -14.5 5.9 -93.3 -3.673
23:42 1028 30.36 858 25.34 -11 12.3 75 -14.5 5.9 -93.3 -3.673
23:43 1028 30.36 858 25.34 -11 12.3 75 -14.5 5.9 -93.3 -3.673
23:44 1028 30.36 858 25.34 -11 12.2 76 -14.5 6 -93.3 -3.673
23:45 1028 30.36 858 25.34 -11 12.2 76 -14.4 6 -93.3 -3.673
23:46 1028 30.36 858 25.34 -11 12.2 75 -14.6 5.8 -93.3 -3.673
23:47 1028 30.36 858 25.34 -11.1 12.1 76 -14.5 5.8 -93.3 -3.673
23:48 1028 30.36 858 25.34 -11 12.1 78 -14.2 6.4 -93.3 -3.673
23:49 1028 30.36 858 25.34 -10.8 12.6 76 -14.2 6.4 -93.3 -3.673
23:50 1028 30.36 858 25.34 -10.4 13.2 75 -14.1 6.6 -93.3 -3.673
23:51 1028 30.36 858 25.34 -10.2 13.7 74 -13.9 7 -93.3 -3.673
23:52 1028 30.36 858 25.34 -9.9 14.2 73 -13.8 7.2 -93.3 -3.673
23:53 1028 30.36 858 25.34 -9.7 14.6 72 -13.8 7.2 -93.2 -3.669
23:54 1028 30.36 858 25.34 -9.5 14.8 71 -13.9 7 -93.2 -3.669
23:55 1028 30.36 858 25.34 -9.6 14.8 71 -13.9 6.9 -93.3 -3.673
23:56 1028 30.36 857 25.31 -9.6 14.7 72 -13.8 7.1 -93.3 -3.673
23:57 1028 30.36 857 25.31 -9.7 14.5 71 -14 6.8 -93.3 -3.673
23:58 1028 30.36 857 25.31 -9.8 14.3 71 -14.1 6.5 -93.3 -3.673
23:59 1028 30.36 858 25.34 -10 13.9 72 -14.2 6.4 -93.3 -3.673
24:00 1028 30.36 858 25.34 -10.3 13.4 73 -14.3 6.3 -93.3 -3.673